Wetterdaten: Donnerstag, 02.07.2020
Datum Zeit Temp. Aussen Temp. o. S. Temp +5cm Feuchte Auss Luftdruck Regen Sonnenschein Regendauer Solar Windben Empfang
02.07.2020 00:00 17,2 C 15,6 C 15,0 C 97 % 1009,0 hPa 0,0 l/m 0 min 0 min 0 W/m 6,4 km/h (2 Bft) 100,00 %
02.07.2020 00:02 17,1 C 15,6 C 15,0 C 97 % 1009,0 hPa 0,0 l/m 0 min 0 min 0 W/m 3,2 km/h (1 Bft) 100,00 %
02.07.2020 00:04 17,1 C 15,6 C 15,0 C 97 % 1009,1 hPa 0,0 l/m 0 min 0 min 0 W/m 6,4 km/h (2 Bft) 100,00 %
02.07.2020 00:08 17,1 C 16,1 C 15,6 C 97 % 1009,0 hPa 0,0 l/m 0 min 0 min 0 W/m 12,9 km/h (3 Bft) 100,00 %
02.07.2020 00:10 17,1 C 16,1 C 15,6 C 97 % 1009,1 hPa 0,0 l/m 0 min 0 min 0 W/m 12,9 km/h (3 Bft) 100,00 %
02.07.2020 00:12 17,1 C 16,1 C 15,6 C 97 % 1009,0 hPa 0,0 l/m 0 min 0 min 0 W/m 12,9 km/h (3 Bft) 100,00 %
02.07.2020 00:14 17,1 C 16,1 C 15,6 C 97 % 1009,1 hPa 0,0 l/m 0 min 0 min 0 W/m 19,3 km/h (3 Bft) 100,00 %
02.07.2020 00:16 17,1 C 16,1 C 15,6 C 97 % 1009,1 hPa 0,0 l/m 0 min 0 min 0 W/m 16,1 km/h (3 Bft) 100,00 %
02.07.2020 00:18 17,1 C 16,1 C 15,6 C 97 % 1009,2 hPa 0,0 l/m 0 min 0 min 0 W/m 16,1 km/h (3 Bft) 100,00 %
02.07.2020 00:20 17,1 C 16,1 C 15,0 C 97 % 1009,1 hPa 0,0 l/m 0 min 0 min 0 W/m 9,7 km/h (2 Bft) 100,00 %
02.07.2020 00:22 17,1 C 15,6 C 15,0 C 97 % 1009,2 hPa 0,0 l/m 0 min 0 min 0 W/m 9,7 km/h (2 Bft) 100,00 %
02.07.2020 00:24 17,1 C 15,6 C 15,0 C 97 % 1009,1 hPa 0,0 l/m 0 min 0 min 0 W/m 3,2 km/h (1 Bft) 100,00 %
02.07.2020 00:26 17,1 C 15,6 C 15,0 C 97 % 1009,1 hPa 0,0 l/m 0 min 0 min 0 W/m 6,4 km/h (2 Bft) 100,00 %
02.07.2020 00:28 17,0 C 15,6 C 15,0 C 97 % 1009,2 hPa 0,0 l/m 0 min 0 min 0 W/m 3,2 km/h (1 Bft) 100,00 %
02.07.2020 00:30 16,9 C 15,6 C 15,0 C 97 % 1009,2 hPa 0,0 l/m 0 min 0 min 0 W/m 12,9 km/h (3 Bft) 100,00 %
02.07.2020 00:32 16,9 C 15,6 C 15,0 C 97 % 1009,2 hPa 0,0 l/m 0 min 0 min 0 W/m 6,4 km/h (2 Bft) 100,00 %
02.07.2020 00:34 16,8 C 15,6 C 15,0 C 97 % 1009,1 hPa 0,0 l/m 0 min 0 min 0 W/m 9,7 km/h (2 Bft) 100,00 %
02.07.2020 00:36 16,8 C 15,6 C 15,0 C 97 % 1009,2 hPa 0,0 l/m 0 min 0 min 0 W/m 3,2 km/h (1 Bft) 97,87 %
02.07.2020 00:38 16,7 C 15,6 C 15,0 C 97 % 1009,2 hPa 0,0 l/m 0 min 0 min 0 W/m 12,9 km/h (3 Bft) 100,00 %
02.07.2020 00:40 16,7 C 15,6 C 15,0 C 97 % 1009,2 hPa 0,0 l/m 0 min 0 min 0 W/m 3,2 km/h (1 Bft) 97,83 %
02.07.2020 00:42 16,7 C 15,6 C 15,0 C 97 % 1009,2 hPa 0,0 l/m 0 min 0 min 0 W/m 0,0 km/h (0 Bft) 97,87 %
02.07.2020 00:44 16,6 C 15,6 C 15,0 C 97 % 1009,3 hPa 0,0 l/m 0 min 0 min 0 W/m 0,0 km/h (0 Bft) 100,00 %
02.07.2020 00:46 16,6 C 15,6 C 15,0 C 97 % 1009,2 hPa 0,0 l/m 0 min 0 min 0 W/m 0,0 km/h (0 Bft) 96,23 %
02.07.2020 00:48 16,6 C 15,6 C 15,0 C 97 % 1009,3 hPa 0,0 l/m 0 min 0 min 0 W/m 3,2 km/h (1 Bft) 97,87 %
02.07.2020 00:50 16,6 C 15,6 C 15,0 C 97 % 1009,4 hPa 0,0 l/m 0 min 0 min 0 W/m 3,2 km/h (1 Bft) 97,50 %
02.07.2020 00:52 16,6 C 15,6 C 15,0 C 97 % 1009,3 hPa 0,0 l/m 0 min 0 min 0 W/m 3,2 km/h (1 Bft) 97,87 %
02.07.2020 00:54 16,6 C 15,6 C 15,0 C 97 % 1009,3 hPa 0,0 l/m 0 min 0 min 0 W/m 0,0 km/h (0 Bft) 97,87 %
02.07.2020 00:56 16,6 C 15,6 C 15,0 C 97 % 1009,3 hPa 0,0 l/m 0 min 0 min 0 W/m 0,0 km/h (0 Bft) 97,87 %
02.07.2020 00:58 16,6 C 15,6 C 15,0 C 97 % 1009,3 hPa 0,0 l/m 0 min 0 min 0 W/m 0,0 km/h (0 Bft) 97,87 %
02.07.2020 01:00 16,6 C 15,6 C 15,0 C 97 % 1009,3 hPa 0,0 l/m 0 min 0 min 0 W/m 3,2 km/h (1 Bft) 97,87 %
02.07.2020 01:02 16,6 C 15,6 C 15,0 C 97 % 1009,4 hPa 0,0 l/m 0 min 0 min 0 W/m 9,7 km/h (2 Bft) 98,11 %
02.07.2020 01:04 16,6 C 15,6 C 15,0 C 97 % 1009,3 hPa 0,0 l/m 0 min 0 min 0 W/m 3,2 km/h (1 Bft) 95,74 %
02.07.2020 01:06 16,6 C 15,6 C 14,4 C 97 % 1009,3 hPa 0,0 l/m 0 min 0 min 0 W/m 6,4 km/h (2 Bft) 97,87 %
02.07.2020 01:08 16,6 C 15,6 C 14,4 C 97 % 1009,4 hPa 0,0 l/m 0 min 0 min 0 W/m 9,7 km/h (2 Bft) 91,49 %
02.07.2020 01:10 16,6 C 15,6 C 14,4 C 97 % 1009,4 hPa 0,0 l/m 0 min 0 min 0 W/m 0,0 km/h (0 Bft) 95,74 %
02.07.2020 01:12 16,6 C 15,0 C 14,4 C 97 % 1009,4 hPa 0,0 l/m 0 min 0 min 0 W/m 0,0 km/h (0 Bft) 97,83 %
02.07.2020 01:14 16,5 C 15,0 C 14,4 C 97 % 1009,4 hPa 0,0 l/m 0 min 0 min 0 W/m 6,4 km/h (2 Bft) 93,62 %
02.07.2020 01:16 16,5 C 15,0 C 14,4 C 97 % 1009,4 hPa 0,0 l/m 0 min 0 min 0 W/m 9,7 km/h (2 Bft) 93,62 %
02.07.2020 01:18 16,5 C 15,0 C 14,4 C 97 % 1009,4 hPa 0,0 l/m 0 min 0 min 0 W/m 0,0 km/h (0 Bft) 93,62 %
02.07.2020 01:20 16,4 C 15,0 C 14,4 C 96 % 1009,5 hPa 0,0 l/m 0 min 0 min 0 W/m 0,0 km/h (0 Bft) 91,49 %
02.07.2020 01:22 16,4 C 15,0 C 14,4 C 96 % 1009,5 hPa 0,0 l/m 0 min 0 min 0 W/m 0,0 km/h (0 Bft) 95,74 %
02.07.2020 01:24 16,4 C 15,0 C 14,4 C 96 % 1009,5 hPa 0,0 l/m 0 min 0 min 0 W/m 3,2 km/h (1 Bft) 93,48 %
02.07.2020 01:26 16,4 C 15,0 C 14,4 C 96 % 1009,4 hPa 0,0 l/m 0 min 0 min 0 W/m 0,0 km/h (0 Bft) 93,62 %
02.07.2020 01:28 16,3 C 15,0 C 14,4 C 96 % 1009,5 hPa 0,0 l/m 0 min 0 min 0 W/m 3,2 km/h (1 Bft) 93,62 %
02.07.2020 01:30 16,3 C 15,0 C 14,4 C 96 % 1009,5 hPa 0,0 l/m 0 min 0 min 0 W/m 3,2 km/h (1 Bft) 95,74 %
02.07.2020 01:32 16,3 C 15,0 C 14,4 C 96 % 1009,5 hPa 0,0 l/m 0 min 0 min 0 W/m 6,4 km/h (2 Bft) 93,75 %
02.07.2020 01:34 16,3 C 15,0 C 13,9 C 96 % 1009,5 hPa 0,0 l/m 0 min 0 min 0 W/m 6,4 km/h (2 Bft) 95,65 %
02.07.2020 01:36 16,2 C 15,0 C 14,4 C 96 % 1009,5 hPa 0,0 l/m 0 min 0 min 0 W/m 0,0 km/h (0 Bft) 91,49 %
02.07.2020 01:38 16,2 C 14,4 C 14,4 C 96 % 1009,4 hPa 0,0 l/m 0 min 0 min 0 W/m 3,2 km/h (1 Bft) 95,74 %
02.07.2020 01:40 16,2 C 14,4 C 13,9 C 96 % 1009,5 hPa 0,0 l/m 0 min 0 min 0 W/m 3,2 km/h (1 Bft) 93,62 %
02.07.2020 01:42 16,2 C 15,0 C 13,9 C 96 % 1009,5 hPa 0,0 l/m 0 min 0 min 0 W/m 0,0 km/h (0 Bft) 93,62 %
02.07.2020 01:44 16,1 C 15,0 C 13,9 C 96 % 1009,5 hPa 0,0 l/m 0 min 0 min 0 W/m 0,0 km/h (0 Bft) 93,62 %
02.07.2020 01:46 16,1 C 14,4 C 13,9 C 96 % 1009,6 hPa 0,0 l/m 0 min 0 min 0 W/m 0,0 km/h (0 Bft) 91,30 %
02.07.2020 01:48 16,1 C 14,4 C 13,9 C 96 % 1009,5 hPa 0,0 l/m 0 min 0 min 0 W/m 0,0 km/h (0 Bft) 85,11 %
02.07.2020 01:50 16,1 C 14,4 C 13,9 C 96 % 1009,6 hPa 0,0 l/m 0 min 0 min 0 W/m 3,2 km/h (1 Bft) 93,62 %
02.07.2020 01:52 16,1 C 14,4 C 13,9 C 96 % 1009,5 hPa 0,0 l/m 0 min 0 min 0 W/m 9,7 km/h (2 Bft) 95,74 %
02.07.2020 01:54 16,0 C 14,4 C 13,9 C 96 % 1009,5 hPa 0,0 l/m 0 min 0 min 0 W/m 3,2 km/h (1 Bft) 93,62 %
02.07.2020 01:56 16,0 C 14,4 C 13,9 C 96 % 1009,5 hPa 0,0 l/m 0 min 0 min 0 W/m 6,4 km/h (2 Bft) 95,74 %
02.07.2020 01:58 16,0 C 14,4 C 13,9 C 96 % 1009,6 hPa 0,0 l/m 0 min 0 min 0 W/m 6,4 km/h (2 Bft) 95,65 %
02.07.2020 02:00 15,9 C 14,4 C 13,9 C 96 % 1009,5 hPa 0,0 l/m 0 min 0 min 0 W/m 3,2 km/h (1 Bft) 93,62 %
02.07.2020 02:02 15,9 C 14,4 C 13,9 C 96 % 1009,5 hPa 0,0 l/m 0 min 0 min 0 W/m 3,2 km/h (1 Bft) 94,44 %
02.07.2020 02:04 15,9 C 14,4 C 13,9 C 96 % 1009,5 hPa 0,0 l/m 0 min 0 min 0 W/m 6,4 km/h (2 Bft) 95,74 %
02.07.2020 02:06 15,8 C 14,4 C 13,9 C 96 % 1009,5 hPa 0,0 l/m 0 min 0 min 0 W/m 3,2 km/h (1 Bft) 95,74 %
02.07.2020 02:08 15,8 C 14,4 C 13,9 C 96 % 1009,5 hPa 0,0 l/m 0 min 0 min 0 W/m 3,2 km/h (1 Bft) 93,62 %
02.07.2020 02:10 15,7 C 14,4 C 13,9 C 96 % 1009,5 hPa 0,0 l/m 0 min 0 min 0 W/m 3,2 km/h (1 Bft) 95,74 %
02.07.2020 02:12 15,7 C 14,4 C 13,9 C 96 % 1009,6 hPa 0,0 l/m 0 min 0 min 0 W/m 3,2 km/h (1 Bft) 95,74 %
02.07.2020 02:14 15,7 C 14,4 C 13,9 C 96 % 1009,6 hPa 0,0 l/m 0 min 0 min 0 W/m 0,0 km/h (0 Bft) 95,74 %
02.07.2020 02:16 15,6 C 14,4 C 13,9 C 95 % 1009,5 hPa 0,0 l/m 0 min 0 min 0 W/m 0,0 km/h (0 Bft) 97,87 %
02.07.2020 02:18 15,6 C 14,4 C 13,3 C 95 % 1009,5 hPa 0,0 l/m 0 min 0 min 0 W/m 0,0 km/h (0 Bft) 97,87 %
02.07.2020 02:20 15,6 C 14,4 C 13,3 C 95 % 1009,6 hPa 0,0 l/m 0 min 0 min 0 W/m 0,0 km/h (0 Bft) 97,87 %
02.07.2020 02:22 15,6 C 14,4 C 13,3 C 95 % 1009,5 hPa 0,0 l/m 0 min 0 min 0 W/m 0,0 km/h (0 Bft) 97,87 %
02.07.2020 02:24 15,5 C 14,4 C 13,3 C 95 % 1009,5 hPa 0,0 l/m 0 min 0 min 0 W/m 0,0 km/h (0 Bft) 100,00 %
02.07.2020 02:26 15,5 C 13,9 C 13,3 C 95 % 1009,6 hPa 0,0 l/m 0 min 0 min 0 W/m 0,0 km/h (0 Bft) 97,87 %
02.07.2020 02:28 15,4 C 13,9 C 13,3 C 95 % 1009,5 hPa 0,0 l/m 0 min 0 min 0 W/m 0,0 km/h (0 Bft) 100,00 %
02.07.2020 02:30 15,4 C 13,9 C 13,3 C 95 % 1009,5 hPa 0,0 l/m 0 min 0 min 0 W/m 0,0 km/h (0 Bft) 97,87 %
02.07.2020 02:32 15,4 C 13,9 C 13,3 C 95 % 1009,6 hPa 0,0 l/m 0 min 0 min 0 W/m 0,0 km/h (0 Bft) 100,00 %
02.07.2020 02:34 15,4 C 13,9 C 13,3 C 95 % 1009,7 hPa 0,0 l/m 0 min 0 min 0 W/m 0,0 km/h (0 Bft) 97,87 %
02.07.2020 02:36 15,4 C 13,9 C 13,3 C 95 % 1009,7 hPa 0,0 l/m 0 min 0 min 0 W/m 0,0 km/h (0 Bft) 100,00 %
02.07.2020 02:38 15,3 C 13,9 C 13,3 C 95 % 1009,7 hPa 0,0 l/m 0 min 0 min 0 W/m 0,0 km/h (0 Bft) 97,87 %
02.07.2020 02:40 15,3 C 13,9 C 13,3 C 95 % 1009,7 hPa 0,0 l/m 0 min 0 min 0 W/m 0,0 km/h (0 Bft) 100,00 %
02.07.2020 02:42 15,3 C 13,9 C 13,3 C 95 % 1009,7 hPa 0,0 l/m 0 min 0 min 0 W/m 0,0 km/h (0 Bft) 95,74 %
02.07.2020 02:44 15,3 C 13,9 C 13,3 C 95 % 1009,7 hPa 0,0 l/m 0 min 0 min 0 W/m 0,0 km/h (0 Bft) 97,87 %
02.07.2020 02:46 15,3 C 13,9 C 13,3 C 95 % 1009,7 hPa 0,0 l/m 0 min 0 min 0 W/m 0,0 km/h (0 Bft) 82,61 %
02.07.2020 02:48 15,3 C 13,9 C 13,3 C 95 % 1009,7 hPa 0,0 l/m 0 min 0 min 0 W/m 0,0 km/h (0 Bft) 80,85 %
02.07.2020 02:50 15,2 C 13,9 C 13,3 C 95 % 1009,8 hPa 0,0 l/m 0 min 0 min 0 W/m 0,0 km/h (0 Bft) 91,49 %
02.07.2020 02:52 15,2 C 13,9 C 13,3 C 95 % 1009,8 hPa 0,0 l/m 0 min 0 min 0 W/m 0,0 km/h (0 Bft) 91,49 %
02.07.2020 02:54 15,2 C 13,9 C 13,3 C 95 % 1009,8 hPa 0,0 l/m 0 min 0 min 0 W/m 0,0 km/h (0 Bft) 97,87 %
02.07.2020 02:56 15,2 C 13,9 C 13,3 C 95 % 1009,8 hPa 0,0 l/m 0 min 0 min 0 W/m 0,0 km/h (0 Bft) 100,00 %
02.07.2020 02:58 15,2 C 13,9 C 13,3 C 95 % 1009,7 hPa 0,0 l/m 0 min 0 min 0 W/m 0,0 km/h (0 Bft) 100,00 %
02.07.2020 03:00 15,2 C 13,9 C 13,3 C 95 % 1009,8 hPa 0,0 l/m 0 min 0 min 0 W/m 0,0 km/h (0 Bft) 97,87 %
02.07.2020 03:02 15,2 C 13,9 C 13,3 C 95 % 1009,8 hPa 0,0 l/m 0 min 0 min 0 W/m 0,0 km/h (0 Bft) 97,92 %
02.07.2020 03:04 15,2 C 13,9 C 13,3 C 95 % 1009,8 hPa 0,0 l/m 0 min 0 min 0 W/m 0,0 km/h (0 Bft) 91,49 %
02.07.2020 03:06 15,2 C 13,9 C 13,3 C 96 % 1009,8 hPa 0,0 l/m 0 min 0 min 0 W/m 0,0 km/h (0 Bft) 74,47 %
02.07.2020 03:08 15,1 C 13,9 C 13,3 C 96 % 1009,7 hPa 0,0 l/m 0 min 0 min 0 W/m 0,0 km/h (0 Bft) 78,72 %
02.07.2020 03:10 15,1 C 13,9 C 13,3 C 96 % 1009,8 hPa 0,0 l/m 0 min 0 min 0 W/m 0,0 km/h (0 Bft) 91,30 %
02.07.2020 03:12 15,1 C 13,9 C 13,3 C 96 % 1009,8 hPa 0,0 l/m 0 min 0 min 0 W/m 0,0 km/h (0 Bft) 95,74 %
02.07.2020 03:14 15,1 C 13,9 C 13,3 C 96 % 1009,8 hPa 0,0 l/m 0 min 0 min 0 W/m 0,0 km/h (0 Bft) 100,00 %
02.07.2020 03:16 15,1 C 13,9 C 13,3 C 96 % 1009,8 hPa 0,0 l/m 0 min 0 min 0 W/m 0,0 km/h (0 Bft) 100,00 %
02.07.2020 03:18 15,1 C 13,9 C 13,3 C 96 % 1009,8 hPa 0,0 l/m 0 min 0 min 0 W/m 0,0 km/h (0 Bft) 100,00 %
02.07.2020 03:20 15,1 C 13,9 C 13,3 C 96 % 1009,8 hPa 0,0 l/m 0 min 0 min 0 W/m 0,0 km/h (0 Bft) 97,87 %
02.07.2020 03:22 15,1 C 13,9 C 13,3 C 96 % 1009,8 hPa 0,0 l/m 0 min 0 min 0 W/m 0,0 km/h (0 Bft) 100,00 %
02.07.2020 03:24 15,0 C 13,9 C 13,3 C 96 % 1009,8 hPa 0,0 l/m 0 min 0 min 0 W/m 0,0 km/h (0 Bft) 97,87 %
02.07.2020 03:26 15,0 C 13,9 C 13,3 C 96 % 1009,9 hPa 0,0 l/m 0 min 0 min 0 W/m 0,0 km/h (0 Bft) 100,00 %
02.07.2020 03:28 14,9 C 13,9 C 13,3 C 96 % 1009,8 hPa 0,0 l/m 0 min 0 min 0 W/m 9,7 km/h (2 Bft) 100,00 %
02.07.2020 03:30 14,9 C 13,9 C 12,8 C 96 % 1009,8 hPa 0,0 l/m 0 min 0 min 0 W/m 6,4 km/h (2 Bft) 95,74 %
02.07.2020 03:32 14,9 C 13,9 C 12,8 C 96 % 1009,8 hPa 0,0 l/m 0 min 0 min 0 W/m 9,7 km/h (2 Bft) 100,00 %
02.07.2020 03:34 14,9 C 13,9 C 12,8 C 96 % 1009,7 hPa 0,0 l/m 0 min 0 min 0 W/m 6,4 km/h (2 Bft) 100,00 %
02.07.2020 03:36 14,8 C 13,9 C 12,8 C 96 % 1009,7 hPa 0,0 l/m 0 min 0 min 0 W/m 6,4 km/h (2 Bft) 100,00 %
02.07.2020 03:38 14,8 C 13,9 C 12,8 C 96 % 1009,7 hPa 0,0 l/m 0 min 0 min 0 W/m 6,4 km/h (2 Bft) 97,87 %
02.07.2020 03:40 14,8 C 13,9 C 12,8 C 96 % 1009,8 hPa 0,0 l/m 0 min 0 min 0 W/m 6,4 km/h (2 Bft) 97,87 %
02.07.2020 03:42 14,8 C 13,3 C 12,8 C 96 % 1009,7 hPa 0,0 l/m 0 min 0 min 0 W/m 3,2 km/h (1 Bft) 95,74 %
02.07.2020 03:44 14,7 C 13,9 C 12,8 C 96 % 1009,7 hPa 0,0 l/m 0 min 0 min 0 W/m 3,2 km/h (1 Bft) 97,87 %
02.07.2020 03:46 14,7 C 13,3 C 12,8 C 96 % 1009,7 hPa 0,0 l/m 0 min 0 min 0 W/m 6,4 km/h (2 Bft) 95,65 %
02.07.2020 03:48 14,7 C 13,3 C 12,8 C 96 % 1009,6 hPa 0,0 l/m 0 min 0 min 0 W/m 3,2 km/h (1 Bft) 95,74 %
02.07.2020 03:50 14,7 C 13,3 C 12,8 C 96 % 1009,7 hPa 0,0 l/m 0 min 0 min 0 W/m 6,4 km/h (2 Bft) 97,87 %
02.07.2020 03:52 14,6 C 13,3 C 12,8 C 96 % 1009,7 hPa 0,0 l/m 0 min 0 min 0 W/m 6,4 km/h (2 Bft) 89,80 %
02.07.2020 03:54 14,6 C 13,3 C 12,8 C 96 % 1009,7 hPa 0,0 l/m 0 min 0 min 0 W/m 3,2 km/h (1 Bft) 95,74 %
02.07.2020 03:56 14,6 C 13,3 C 12,8 C 96 % 1009,7 hPa 0,0 l/m 0 min 0 min 0 W/m 3,2 km/h (1 Bft) 97,83 %
02.07.2020 03:58 14,6 C 13,3 C 12,8 C 96 % 1009,7 hPa 0,0 l/m 0 min 0 min 0 W/m 9,7 km/h (2 Bft) 93,62 %
02.07.2020 04:00 14,5 C 13,3 C 12,8 C 96 % 1009,7 hPa 0,0 l/m 0 min 0 min 0 W/m 6,4 km/h (2 Bft) 95,74 %
02.07.2020 04:02 14,5 C 13,3 C 12,8 C 96 % 1009,7 hPa 0,0 l/m 0 min 0 min 0 W/m 3,2 km/h (1 Bft) 100,00 %
02.07.2020 04:04 14,5 C 13,3 C 12,8 C 96 % 1009,7 hPa 0,0 l/m 0 min 0 min 0 W/m 3,2 km/h (1 Bft) 95,74 %
02.07.2020 04:06 14,4 C 13,3 C 12,8 C 96 % 1009,7 hPa 0,0 l/m 0 min 0 min 0 W/m 6,4 km/h (2 Bft) 97,87 %
02.07.2020 04:08 14,4 C 13,3 C 12,8 C 96 % 1009,7 hPa 0,0 l/m 0 min 0 min 0 W/m 3,2 km/h (1 Bft) 95,65 %
02.07.2020 04:10 14,4 C 13,3 C 12,8 C 96 % 1009,7 hPa 0,0 l/m 0 min 0 min 0 W/m 3,2 km/h (1 Bft) 95,74 %
02.07.2020 04:12 14,3 C 13,3 C 12,8 C 96 % 1009,7 hPa 0,0 l/m 0 min 0 min 0 W/m 6,4 km/h (2 Bft) 91,49 %
02.07.2020 04:14 14,3 C 13,3 C 12,8 C 96 % 1009,6 hPa 0,0 l/m 0 min 0 min 0 W/m 3,2 km/h (1 Bft) 91,49 %
02.07.2020 04:16 14,3 C 13,3 C 12,8 C 96 % 1009,6 hPa 0,0 l/m 0 min 0 min 0 W/m 0,0 km/h (0 Bft) 91,49 %
02.07.2020 04:18 14,3 C 13,3 C 12,2 C 96 % 1009,7 hPa 0,0 l/m 0 min 0 min 0 W/m 3,2 km/h (1 Bft) 91,49 %
02.07.2020 04:20 14,3 C 13,3 C 12,8 C 96 % 1009,7 hPa 0,0 l/m 0 min 0 min 0 W/m 6,4 km/h (2 Bft) 95,65 %
02.07.2020 04:22 14,3 C 13,3 C 12,8 C 96 % 1009,7 hPa 0,0 l/m 0 min 0 min 0 W/m 0,0 km/h (0 Bft) 95,74 %
02.07.2020 04:24 14,3 C 13,3 C 12,8 C 96 % 1009,7 hPa 0,0 l/m 0 min 0 min 0 W/m 6,4 km/h (2 Bft) 95,74 %
02.07.2020 04:26 14,3 C 13,3 C 12,8 C 96 % 1009,7 hPa 0,0 l/m 0 min 0 min 0 W/m 6,4 km/h (2 Bft) 95,74 %
02.07.2020 04:28 14,3 C 12,8 C 12,8 C 96 % 1009,8 hPa 0,0 l/m 0 min 0 min 0 W/m 0,0 km/h (0 Bft) 95,74 %
02.07.2020 04:30 14,3 C 12,8 C 12,8 C 96 % 1009,8 hPa 0,0 l/m 0 min 0 min 0 W/m 6,4 km/h (2 Bft) 97,87 %
02.07.2020 04:32 14,3 C 12,8 C 12,8 C 96 % 1009,9 hPa 0,0 l/m 0 min 0 min 0 W/m 6,4 km/h (2 Bft) 93,48 %
02.07.2020 04:34 14,3 C 12,8 C 12,2 C 96 % 1009,9 hPa 0,0 l/m 0 min 0 min 0 W/m 6,4 km/h (2 Bft) 97,87 %
02.07.2020 04:36 14,3 C 12,8 C 12,2 C 96 % 1009,9 hPa 0,0 l/m 0 min 0 min 0 W/m 3,2 km/h (1 Bft) 97,87 %
02.07.2020 04:38 14,3 C 12,8 C 12,2 C 96 % 1009,9 hPa 0,0 l/m 0 min 0 min 0 W/m 0,0 km/h (0 Bft) 95,74 %
02.07.2020 04:40 14,2 C 12,8 C 12,2 C 96 % 1009,9 hPa 0,0 l/m 0 min 0 min 0 W/m 0,0 km/h (0 Bft) 95,74 %
02.07.2020 04:42 14,2 C 12,8 C 12,2 C 96 % 1009,9 hPa 0,0 l/m 0 min 0 min 0 W/m 0,0 km/h (0 Bft) 95,65 %
02.07.2020 04:44 14,2 C 12,8 C 12,2 C 96 % 1009,9 hPa 0,0 l/m 0 min 0 min 0 W/m 0,0 km/h (0 Bft) 97,87 %
02.07.2020 04:46 14,1 C 12,8 C 12,2 C 96 % 1009,9 hPa 0,0 l/m 0 min 0 min 0 W/m 3,2 km/h (1 Bft) 97,87 %
02.07.2020 04:48 14,1 C 12,8 C 12,2 C 96 % 1009,9 hPa 0,0 l/m 0 min 0 min 0 W/m 0,0 km/h (0 Bft) 97,87 %
02.07.2020 04:50 14,1 C 12,8 C 12,2 C 96 % 1009,9 hPa 0,0 l/m 0 min 0 min 0 W/m 0,0 km/h (0 Bft) 100,00 %
02.07.2020 04:52 14,1 C 12,8 C 12,2 C 96 % 1009,9 hPa 0,0 l/m 0 min 0 min 0 W/m 0,0 km/h (0 Bft) 100,00 %
02.07.2020 04:54 14,1 C 12,8 C 12,2 C 96 % 1010,0 hPa 0,0 l/m 0 min 0 min 0 W/m 3,2 km/h (1 Bft) 97,83 %
02.07.2020 04:56 14,1 C 12,8 C 12,2 C 96 % 1010,0 hPa 0,0 l/m 0 min 0 min 0 W/m 3,2 km/h (1 Bft) 100,00 %
02.07.2020 04:58 14,1 C 12,8 C 12,2 C 96 % 1009,9 hPa 0,0 l/m 0 min 0 min 0 W/m 0,0 km/h (0 Bft) 100,00 %
02.07.2020 05:00 14,0 C 12,8 C 12,2 C 96 % 1010,0 hPa 0,0 l/m 0 min 0 min 0 W/m 3,2 km/h (1 Bft) 100,00 %
02.07.2020 05:02 14,0 C 12,8 C 12,2 C 96 % 1009,9 hPa 0,0 l/m 0 min 0 min 0 W/m 3,2 km/h (1 Bft) 100,00 %
02.07.2020 05:04 14,0 C 12,8 C 12,2 C 96 % 1009,9 hPa 0,0 l/m 0 min 0 min 0 W/m 6,4 km/h (2 Bft) 100,00 %
02.07.2020 05:06 14,0 C 12,8 C 12,2 C 96 % 1009,9 hPa 0,0 l/m 0 min 0 min 0 W/m 0,0 km/h (0 Bft) 97,87 %
02.07.2020 05:08 14,0 C 12,8 C 12,2 C 96 % 1009,9 hPa 0,0 l/m 0 min 0 min 0 W/m 3,2 km/h (1 Bft) 97,87 %
02.07.2020 05:10 14,0 C 12,8 C 12,2 C 96 % 1009,9 hPa 0,0 l/m 0 min 0 min 0 W/m 9,7 km/h (2 Bft) 93,48 %
02.07.2020 05:12 13,9 C 12,8 C 12,2 C 96 % 1009,9 hPa 0,0 l/m 0 min 0 min 0 W/m 9,7 km/h (2 Bft) 95,74 %
02.07.2020 05:14 13,9 C 12,8 C 12,2 C 96 % 1009,9 hPa 0,0 l/m 0 min 0 min 0 W/m 3,2 km/h (1 Bft) 93,62 %
02.07.2020 05:16 13,9 C 12,8 C 12,2 C 96 % 1009,9 hPa 0,0 l/m 0 min 0 min 0 W/m 6,4 km/h (2 Bft) 97,87 %
02.07.2020 05:18 13,9 C 12,8 C 12,2 C 96 % 1009,9 hPa 0,0 l/m 0 min 0 min 0 W/m 3,2 km/h (1 Bft) 95,74 %
02.07.2020 05:20 13,9 C 12,8 C 12,2 C 96 % 1009,9 hPa 0,0 l/m 0 min 0 min 0 W/m 0,0 km/h (0 Bft) 97,87 %
02.07.2020 05:22 13,9 C 12,8 C 12,2 C 96 % 1010,0 hPa 0,0 l/m 0 min 0 min 0 W/m 3,2 km/h (1 Bft) 96,15 %
02.07.2020 05:24 13,9 C 12,8 C 12,2 C 96 % 1009,9 hPa 0,0 l/m 0 min 0 min 0 W/m 6,4 km/h (2 Bft) 97,87 %
02.07.2020 05:26 13,9 C 12,8 C 12,2 C 96 % 1009,9 hPa 0,0 l/m 0 min 0 min 0 W/m 3,2 km/h (1 Bft) 97,56 %
02.07.2020 05:28 13,9 C 12,8 C 12,2 C 96 % 1009,9 hPa 0,0 l/m 0 min 0 min 0 W/m 6,4 km/h (2 Bft) 97,87 %
02.07.2020 05:30 13,9 C 12,8 C 12,2 C 96 % 1009,9 hPa 0,0 l/m 0 min 0 min 0 W/m 6,4 km/h (2 Bft) 97,87 %
02.07.2020 05:32 13,8 C 12,8 C 12,2 C 96 % 1009,9 hPa 0,0 l/m 0 min 0 min 4 W/m 6,4 km/h (2 Bft) 98,11 %
02.07.2020 05:34 13,8 C 12,8 C 12,2 C 96 % 1009,9 hPa 0,0 l/m 0 min 0 min 5 W/m 6,4 km/h (2 Bft) 95,74 %
02.07.2020 05:36 13,8 C 12,8 C 12,2 C 96 % 1009,9 hPa 0,0 l/m 0 min 0 min 5 W/m 6,4 km/h (2 Bft) 97,87 %
02.07.2020 05:38 13,8 C 12,8 C 12,2 C 96 % 1009,8 hPa 0,0 l/m 0 min 0 min 5 W/m 3,2 km/h (1 Bft) 95,74 %
02.07.2020 05:40 13,8 C 12,8 C 12,2 C 96 % 1009,9 hPa 0,0 l/m 0 min 0 min 5 W/m 9,7 km/h (2 Bft) 97,87 %
02.07.2020 05:42 13,8 C 12,8 C 12,2 C 96 % 1009,9 hPa 0,0 l/m 0 min 0 min 7 W/m 3,2 km/h (1 Bft) 97,87 %
02.07.2020 05:44 13,8 C 12,8 C 12,2 C 96 % 1009,9 hPa 0,0 l/m 0 min 0 min 7 W/m 6,4 km/h (2 Bft) 97,87 %
02.07.2020 05:46 13,8 C 12,8 C 12,2 C 96 % 1009,9 hPa 0,0 l/m 0 min 0 min 7 W/m 0,0 km/h (0 Bft) 95,74 %
02.07.2020 05:48 13,8 C 12,8 C 12,2 C 96 % 1010,0 hPa 0,0 l/m 0 min 0 min 9 W/m 3,2 km/h (1 Bft) 97,87 %
02.07.2020 05:50 13,7 C 12,8 C 12,2 C 96 % 1009,9 hPa 0,0 l/m 0 min 0 min 9 W/m 0,0 km/h (0 Bft) 97,87 %
02.07.2020 05:52 13,7 C 12,8 C 12,2 C 96 % 1009,9 hPa 0,0 l/m 0 min 0 min 9 W/m 3,2 km/h (1 Bft) 95,74 %
02.07.2020 05:54 13,7 C 12,8 C 12,2 C 96 % 1010,0 hPa 0,0 l/m 0 min 0 min 9 W/m 3,2 km/h (1 Bft) 97,83 %
02.07.2020 05:56 13,7 C 12,8 C 12,2 C 96 % 1009,9 hPa 0,0 l/m 0 min 0 min 9 W/m 3,2 km/h (1 Bft) 97,87 %
02.07.2020 05:58 13,7 C 12,8 C 12,2 C 96 % 1009,9 hPa 0,0 l/m 0 min 0 min 9 W/m 0,0 km/h (0 Bft) 97,87 %
02.07.2020 06:00 13,7 C 12,8 C 12,2 C 96 % 1009,9 hPa 0,0 l/m 0 min 0 min 9 W/m 3,2 km/h (1 Bft) 97,87 %
02.07.2020 06:02 13,7 C 12,8 C 12,2 C 96 % 1010,0 hPa 0,0 l/m 0 min 0 min 9 W/m 3,2 km/h (1 Bft) 95,74 %
02.07.2020 06:04 13,7 C 12,8 C 12,2 C 96 % 1010,0 hPa 0,0 l/m 0 min 0 min 10 W/m 0,0 km/h (0 Bft) 95,74 %
02.07.2020 06:08 13,7 C 12,8 C 12,2 C 96 % 1010,0 hPa 0,0 l/m 0 min 0 min 11 W/m 0,0 km/h (0 Bft) 95,70 %
02.07.2020 06:10 13,7 C 12,8 C 12,2 C 96 % 1010,0 hPa 0,0 l/m 0 min 0 min 11 W/m 0,0 km/h (0 Bft) 97,87 %
02.07.2020 06:12 13,7 C 12,8 C 12,2 C 96 % 1010,0 hPa 0,0 l/m 0 min 0 min 12 W/m 0,0 km/h (0 Bft) 95,74 %
02.07.2020 06:14 13,7 C 12,8 C 12,2 C 96 % 1010,0 hPa 0,0 l/m 0 min 0 min 12 W/m 3,2 km/h (1 Bft) 97,87 %
02.07.2020 06:16 13,7 C 12,8 C 12,2 C 96 % 1010,0 hPa 0,0 l/m 0 min 0 min 12 W/m 0,0 km/h (0 Bft) 100,00 %
02.07.2020 06:18 13,7 C 12,8 C 12,2 C 96 % 1010,0 hPa 0,0 l/m 0 min 0 min 12 W/m 3,2 km/h (1 Bft) 97,87 %
02.07.2020 06:20 13,7 C 13,3 C 12,2 C 96 % 1010,0 hPa 0,0 l/m 0 min 0 min 12 W/m 3,2 km/h (1 Bft) 97,87 %
02.07.2020 06:22 13,7 C 13,3 C 12,2 C 96 % 1010,0 hPa 0,0 l/m 0 min 0 min 13 W/m 0,0 km/h (0 Bft) 95,74 %
02.07.2020 06:24 13,7 C 13,3 C 12,2 C 96 % 1010,0 hPa 0,0 l/m 0 min 0 min 14 W/m 3,2 km/h (1 Bft) 97,87 %
02.07.2020 06:26 13,7 C 13,3 C 12,2 C 96 % 1010,0 hPa 0,0 l/m 0 min 0 min 14 W/m 3,2 km/h (1 Bft) 100,00 %
02.07.2020 06:28 13,7 C 13,3 C 12,2 C 96 % 1010,0 hPa 0,0 l/m 0 min 0 min 14 W/m 0,0 km/h (0 Bft) 97,83 %
02.07.2020 06:30 13,7 C 13,3 C 12,2 C 96 % 1010,0 hPa 0,0 l/m 0 min 0 min 15 W/m 3,2 km/h (1 Bft) 95,74 %
02.07.2020 06:32 13,7 C 13,3 C 12,2 C 96 % 1010,1 hPa 0,0 l/m 0 min 0 min 16 W/m 0,0 km/h (0 Bft) 95,74 %
02.07.2020 06:34 13,7 C 13,3 C 12,2 C 96 % 1010,1 hPa 0,0 l/m 0 min 0 min 16 W/m 6,4 km/h (2 Bft) 97,87 %
02.07.2020 06:36 13,7 C 13,9 C 12,2 C 96 % 1010,1 hPa 0,0 l/m 0 min 0 min 16 W/m 3,2 km/h (1 Bft) 93,62 %
02.07.2020 06:38 13,7 C 13,9 C 12,2 C 96 % 1010,1 hPa 0,0 l/m 0 min 0 min 17 W/m 3,2 km/h (1 Bft) 93,62 %
02.07.2020 06:40 13,7 C 13,9 C 12,2 C 96 % 1010,1 hPa 0,0 l/m 0 min 0 min 18 W/m 0,0 km/h (0 Bft) 93,48 %
02.07.2020 06:42 13,7 C 13,9 C 12,2 C 96 % 1010,1 hPa 0,0 l/m 0 min 0 min 18 W/m 3,2 km/h (1 Bft) 95,74 %
02.07.2020 06:44 13,7 C 13,9 C 12,2 C 96 % 1010,1 hPa 0,0 l/m 0 min 0 min 19 W/m 0,0 km/h (0 Bft) 93,62 %
02.07.2020 06:46 13,8 C 13,9 C 12,2 C 96 % 1010,1 hPa 0,0 l/m 0 min 0 min 19 W/m 3,2 km/h (1 Bft) 95,74 %
02.07.2020 06:48 13,8 C 13,9 C 12,2 C 96 % 1010,1 hPa 0,0 l/m 0 min 0 min 21 W/m 0,0 km/h (0 Bft) 95,74 %
02.07.2020 06:50 13,8 C 13,9 C 12,2 C 96 % 1010,1 hPa 0,0 l/m 0 min 0 min 21 W/m 0,0 km/h (0 Bft) 89,36 %
02.07.2020 06:52 13,8 C 13,9 C 12,2 C 96 % 1010,1 hPa 0,0 l/m 0 min 0 min 24 W/m 0,0 km/h (0 Bft) 95,65 %
02.07.2020 06:54 13,8 C 13,9 C 12,2 C 96 % 1010,2 hPa 0,0 l/m 0 min 0 min 26 W/m 6,4 km/h (2 Bft) 91,49 %
02.07.2020 06:56 13,9 C 13,9 C 12,2 C 96 % 1010,2 hPa 0,0 l/m 0 min 0 min 31 W/m 12,9 km/h (3 Bft) 93,62 %
02.07.2020 06:58 13,9 C 14,4 C 12,8 C 96 % 1010,2 hPa 0,0 l/m 0 min 0 min 38 W/m 12,9 km/h (3 Bft) 93,62 %
02.07.2020 07:00 13,9 C 14,4 C 12,8 C 96 % 1010,2 hPa 0,0 l/m 0 min 0 min 47 W/m 3,2 km/h (1 Bft) 95,74 %
02.07.2020 07:02 14,0 C 14,4 C 12,8 C 96 % 1010,2 hPa 0,0 l/m 0 min 0 min 57 W/m 6,4 km/h (2 Bft) 95,65 %
02.07.2020 07:04 14,1 C 15,0 C 12,8 C 96 % 1010,2 hPa 0,0 l/m 0 min 0 min 66 W/m 3,2 km/h (1 Bft) 95,74 %
02.07.2020 07:06 14,1 C 15,0 C 12,8 C 96 % 1010,2 hPa 0,0 l/m 0 min 0 min 75 W/m 12,9 km/h (3 Bft) 95,74 %
02.07.2020 07:08 14,2 C 15,0 C 13,3 C 96 % 1010,2 hPa 0,0 l/m 0 min 0 min 79 W/m 12,9 km/h (3 Bft) 91,49 %
02.07.2020 07:10 14,3 C 15,6 C 13,3 C 97 % 1010,2 hPa 0,0 l/m 0 min 0 min 82 W/m 12,9 km/h (3 Bft) 95,74 %
02.07.2020 07:12 14,3 C 15,6 C 13,3 C 97 % 1010,2 hPa 0,0 l/m 0 min 0 min 87 W/m 6,4 km/h (2 Bft) 93,62 %
02.07.2020 07:14 14,3 C 15,6 C 13,3 C 97 % 1010,2 hPa 0,0 l/m 0 min 0 min 96 W/m 12,9 km/h (3 Bft) 95,65 %
02.07.2020 07:16 14,4 C 16,1 C 13,3 C 97 % 1010,2 hPa 0,0 l/m 0 min 0 min 98 W/m 16,1 km/h (3 Bft) 93,62 %
02.07.2020 07:18 14,5 C 16,1 C 13,3 C 96 % 1010,2 hPa 0,0 l/m 0 min 0 min 100 W/m 12,9 km/h (3 Bft) 95,74 %
02.07.2020 07:20 14,6 C 16,1 C 13,9 C 96 % 1010,2 hPa 0,0 l/m 0 min 0 min 100 W/m 12,9 km/h (3 Bft) 100,00 %
02.07.2020 07:22 14,7 C 16,1 C 13,9 C 97 % 1010,2 hPa 0,0 l/m 0 min 0 min 102 W/m 12,9 km/h (3 Bft) 97,87 %
02.07.2020 07:24 14,7 C 16,1 C 13,9 C 96 % 1010,3 hPa 0,0 l/m 0 min 0 min 104 W/m 16,1 km/h (3 Bft) 100,00 %
02.07.2020 07:26 14,8 C 16,1 C 13,9 C 96 % 1010,3 hPa 0,0 l/m 0 min 0 min 104 W/m 6,4 km/h (2 Bft) 100,00 %
02.07.2020 07:28 14,9 C 16,1 C 13,9 C 96 % 1010,3 hPa 0,0 l/m 0 min 0 min 102 W/m 16,1 km/h (3 Bft) 100,00 %
02.07.2020 07:30 14,9 C 16,1 C 13,9 C 96 % 1010,4 hPa 0,0 l/m 0 min 0 min 94 W/m 6,4 km/h (2 Bft) 97,87 %
02.07.2020 07:32 15,1 C 16,1 C 13,9 C 96 % 1010,3 hPa 0,0 l/m 0 min 0 min 81 W/m 16,1 km/h (3 Bft) 100,00 %
02.07.2020 07:34 15,1 C 16,1 C 13,9 C 96 % 1010,4 hPa 0,0 l/m 0 min 0 min 81 W/m 9,7 km/h (2 Bft) 100,00 %
02.07.2020 07:36 15,1 C 16,1 C 13,9 C 95 % 1010,3 hPa 0,0 l/m 0 min 0 min 83 W/m 12,9 km/h (3 Bft) 97,87 %
02.07.2020 07:38 15,2 C 16,1 C 13,9 C 95 % 1010,4 hPa 0,0 l/m 0 min 0 min 84 W/m 6,4 km/h (2 Bft) 100,00 %
02.07.2020 07:40 15,2 C 16,1 C 13,9 C 95 % 1010,4 hPa 0,0 l/m 0 min 0 min 83 W/m 12,9 km/h (3 Bft) 100,00 %
02.07.2020 07:42 15,3 C 16,1 C 13,9 C 95 % 1010,5 hPa 0,0 l/m 0 min 0 min 83 W/m 12,9 km/h (3 Bft) 100,00 %
02.07.2020 07:44 15,3 C 16,1 C 13,9 C 95 % 1010,5 hPa 0,0 l/m 0 min 0 min 76 W/m 12,9 km/h (3 Bft) 100,00 %
02.07.2020 07:46 15,3 C 16,1 C 13,9 C 94 % 1010,5 hPa 0,0 l/m 0 min 0 min 69 W/m 12,9 km/h (3 Bft) 100,00 %
02.07.2020 07:48 15,4 C 16,1 C 13,9 C 94 % 1010,6 hPa 0,0 l/m 0 min 0 min 59 W/m 9,7 km/h (2 Bft) 100,00 %
02.07.2020 07:50 15,4 C 15,6 C 13,9 C 94 % 1010,5 hPa 0,0 l/m 0 min 0 min 56 W/m 16,1 km/h (3 Bft) 100,00 %
02.07.2020 07:52 15,4 C 15,6 C 13,9 C 94 % 1010,6 hPa 0,0 l/m 0 min 0 min 57 W/m 12,9 km/h (3 Bft) 100,00 %
02.07.2020 07:54 15,4 C 15,6 C 13,9 C 93 % 1010,6 hPa 0,0 l/m 0 min 0 min 71 W/m 9,7 km/h (2 Bft) 100,00 %
02.07.2020 07:56 15,5 C 16,1 C 13,9 C 93 % 1010,5 hPa 0,0 l/m 0 min 0 min 72 W/m 9,7 km/h (2 Bft) 100,00 %
02.07.2020 07:58 15,6 C 16,1 C 13,9 C 93 % 1010,5 hPa 0,0 l/m 0 min 0 min 59 W/m 12,9 km/h (3 Bft) 100,00 %
02.07.2020 08:00 15,6 C 16,1 C 13,9 C 93 % 1010,6 hPa 0,0 l/m 0 min 0 min 60 W/m 12,9 km/h (3 Bft) 97,87 %
02.07.2020 08:02 15,6 C 17,8 C 13,9 C 93 % 1010,6 hPa 0,0 l/m 0 min 0 min 58 W/m 16,1 km/h (3 Bft) 100,00 %
02.07.2020 08:04 15,7 C 18,3 C 13,9 C 92 % 1010,6 hPa 0,0 l/m 0 min 0 min 56 W/m 12,9 km/h (3 Bft) 100,00 %
02.07.2020 08:06 15,7 C 19,4 C 13,9 C 92 % 1010,5 hPa 0,0 l/m 0 min 0 min 57 W/m 9,7 km/h (2 Bft) 97,87 %
02.07.2020 08:08 15,8 C 19,4 C 13,9 C 92 % 1010,5 hPa 0,0 l/m 0 min 0 min 57 W/m 16,1 km/h (3 Bft) 100,00 %
02.07.2020 08:10 15,9 C 20,0 C 13,9 C 92 % 1010,5 hPa 0,0 l/m 0 min 0 min 59 W/m 12,9 km/h (3 Bft) 100,00 %
02.07.2020 08:12 16,0 C 20,0 C 13,9 C 92 % 1010,5 hPa 0,0 l/m 0 min 0 min 62 W/m 9,7 km/h (2 Bft) 97,83 %
02.07.2020 08:14 16,1 C 20,0 C 13,9 C 92 % 1010,6 hPa 0,0 l/m 0 min 0 min 67 W/m 12,9 km/h (3 Bft) 100,00 %
02.07.2020 08:16 16,2 C 20,6 C 14,4 C 92 % 1010,6 hPa 0,0 l/m 0 min 0 min 80 W/m 6,4 km/h (2 Bft) 100,00 %
02.07.2020 08:18 16,3 C 21,1 C 14,4 C 92 % 1010,6 hPa 0,0 l/m 0 min 0 min 93 W/m 12,9 km/h (3 Bft) 100,00 %
02.07.2020 08:20 16,4 C 22,2 C 14,4 C 92 % 1010,6 hPa 0,0 l/m 0 min 0 min 104 W/m 6,4 km/h (2 Bft) 97,87 %
02.07.2020 08:22 16,6 C 21,7 C 15,0 C 92 % 1010,7 hPa 0,0 l/m 0 min 0 min 140 W/m 9,7 km/h (2 Bft) 100,00 %
02.07.2020 08:24 16,7 C 22,2 C 15,0 C 92 % 1010,7 hPa 0,0 l/m 2 min 0 min 234 W/m 22,5 km/h (4 Bft) 100,00 %
02.07.2020 08:26 16,8 C 21,1 C 15,6 C 91 % 1010,7 hPa 0,0 l/m 2 min 0 min 255 W/m 22,5 km/h (4 Bft) 100,00 %
02.07.2020 08:28 16,9 C 20,0 C 16,1 C 90 % 1010,6 hPa 0,0 l/m 2 min 0 min 216 W/m 12,9 km/h (3 Bft) 100,00 %
02.07.2020 08:30 17,1 C 19,4 C 16,1 C 90 % 1010,6 hPa 0,0 l/m 0 min 0 min 196 W/m 12,9 km/h (3 Bft) 100,00 %
02.07.2020 08:32 17,2 C 18,3 C 16,1 C 90 % 1010,7 hPa 0,0 l/m 0 min 0 min 179 W/m 16,1 km/h (3 Bft) 97,87 %
02.07.2020 08:34 17,2 C 18,3 C 16,1 C 89 % 1010,6 hPa 0,0 l/m 0 min 0 min 171 W/m 9,7 km/h (2 Bft) 95,74 %
02.07.2020 08:36 17,3 C 18,3 C 16,1 C 89 % 1010,7 hPa 0,0 l/m 0 min 0 min 165 W/m 9,7 km/h (2 Bft) 100,00 %
02.07.2020 08:38 17,3 C 17,8 C 15,6 C 88 % 1010,7 hPa 0,0 l/m 0 min 0 min 165 W/m 19,3 km/h (3 Bft) 97,87 %
02.07.2020 08:40 17,3 C 17,8 C 15,6 C 88 % 1010,7 hPa 0,0 l/m 0 min 0 min 168 W/m 9,7 km/h (2 Bft) 97,87 %
02.07.2020 08:42 17,3 C 17,8 C 15,6 C 88 % 1010,7 hPa 0,0 l/m 0 min 0 min 171 W/m 9,7 km/h (2 Bft) 95,74 %
02.07.2020 08:44 17,3 C 17,8 C 15,6 C 88 % 1010,9 hPa 0,0 l/m 0 min 0 min 174 W/m 12,9 km/h (3 Bft) 97,87 %
02.07.2020 08:46 17,3 C 17,8 C 15,6 C 87 % 1010,8 hPa 0,0 l/m 0 min 0 min 182 W/m 9,7 km/h (2 Bft) 97,87 %
02.07.2020 08:48 17,3 C 17,8 C 15,6 C 87 % 1010,7 hPa 0,0 l/m 0 min 0 min 193 W/m 9,7 km/h (2 Bft) 97,83 %
02.07.2020 08:50 17,3 C 17,8 C 16,1 C 87 % 1010,8 hPa 0,0 l/m 0 min 0 min 200 W/m 12,9 km/h (3 Bft) 97,87 %
02.07.2020 08:52 17,3 C 17,8 C 16,1 C 87 % 1010,8 hPa 0,0 l/m 0 min 0 min 200 W/m 16,1 km/h (3 Bft) 97,87 %
02.07.2020 08:54 17,3 C 17,8 C 16,1 C 87 % 1010,9 hPa 0,0 l/m 0 min 0 min 172 W/m 12,9 km/h (3 Bft) 97,87 %
02.07.2020 08:56 17,3 C 17,2 C 15,6 C 87 % 1010,9 hPa 0,0 l/m 0 min 0 min 152 W/m 12,9 km/h (3 Bft) 97,87 %
02.07.2020 08:58 17,3 C 17,2 C 16,1 C 87 % 1010,9 hPa 0,0 l/m 0 min 0 min 145 W/m 6,4 km/h (2 Bft) 97,87 %
02.07.2020 09:00 17,3 C 17,8 C 15,6 C 87 % 1010,8 hPa 0,0 l/m 0 min 0 min 138 W/m 3,2 km/h (1 Bft) 97,83 %
02.07.2020 09:02 17,3 C 18,3 C 16,1 C 87 % 1010,8 hPa 0,0 l/m 0 min 0 min 136 W/m 6,4 km/h (2 Bft) 100,00 %
02.07.2020 09:04 17,4 C 19,4 C 17,2 C 88 % 1010,8 hPa 0,0 l/m 0 min 0 min 195 W/m 6,4 km/h (2 Bft) 97,87 %
02.07.2020 09:06 17,5 C 21,1 C 18,9 C 88 % 1010,8 hPa 0,0 l/m 2 min 0 min 254 W/m 6,4 km/h (2 Bft) 95,74 %
02.07.2020 09:08 17,6 C 22,8 C 20,0 C 88 % 1010,8 hPa 0,0 l/m 2 min 0 min 311 W/m 9,7 km/h (2 Bft) 95,74 %
02.07.2020 09:10 17,6 C 22,8 C 20,6 C 88 % 1010,7 hPa 0,0 l/m 2 min 0 min 352 W/m 6,4 km/h (2 Bft) 95,65 %
02.07.2020 09:12 17,7 C 22,2 C 20,6 C 88 % 1010,7 hPa 0,0 l/m 2 min 0 min 314 W/m 9,7 km/h (2 Bft) 93,62 %
02.07.2020 09:14 17,8 C 21,1 C 19,4 C 88 % 1010,7 hPa 0,0 l/m 2 min 0 min 317 W/m 6,4 km/h (2 Bft) 95,74 %
02.07.2020 09:16 17,9 C 20,0 C 18,3 C 88 % 1010,7 hPa 0,0 l/m 0 min 0 min 221 W/m 19,3 km/h (3 Bft) 95,74 %
02.07.2020 09:18 17,9 C 18,9 C 17,8 C 87 % 1010,7 hPa 0,0 l/m 0 min 0 min 239 W/m 16,1 km/h (3 Bft) 93,62 %
02.07.2020 09:20 17,9 C 18,9 C 17,2 C 86 % 1010,7 hPa 0,0 l/m 0 min 0 min 204 W/m 12,9 km/h (3 Bft) 95,74 %
02.07.2020 09:22 18,0 C 18,9 C 16,7 C 86 % 1010,6 hPa 0,0 l/m 0 min 0 min 220 W/m 12,9 km/h (3 Bft) 97,83 %
02.07.2020 09:24 18,0 C 18,9 C 16,7 C 86 % 1010,6 hPa 0,0 l/m 0 min 0 min 222 W/m 6,4 km/h (2 Bft) 95,74 %
02.07.2020 09:26 18,0 C 18,9 C 16,7 C 86 % 1010,6 hPa 0,0 l/m 0 min 0 min 203 W/m 9,7 km/h (2 Bft) 93,62 %
02.07.2020 09:28 18,1 C 18,9 C 16,7 C 86 % 1010,6 hPa 0,0 l/m 0 min 0 min 195 W/m 3,2 km/h (1 Bft) 95,74 %
02.07.2020 09:30 18,1 C 18,9 C 16,7 C 86 % 1010,7 hPa 0,0 l/m 0 min 0 min 211 W/m 16,1 km/h (3 Bft) 95,74 %
02.07.2020 09:32 18,1 C 18,9 C 16,7 C 86 % 1010,6 hPa 0,0 l/m 0 min 0 min 258 W/m 16,1 km/h (3 Bft) 97,87 %
02.07.2020 09:34 18,1 C 19,4 C 16,7 C 86 % 1010,6 hPa 0,0 l/m 0 min 0 min 232 W/m 6,4 km/h (2 Bft) 95,65 %
02.07.2020 09:36 18,1 C 18,9 C 16,7 C 85 % 1010,7 hPa 0,0 l/m 0 min 0 min 199 W/m 12,9 km/h (3 Bft) 93,62 %
02.07.2020 09:38 18,2 C 18,9 C 16,7 C 85 % 1010,6 hPa 0,0 l/m 0 min 0 min 164 W/m 6,4 km/h (2 Bft) 97,87 %
02.07.2020 09:40 18,2 C 21,1 C 18,9 C 85 % 1010,6 hPa 0,0 l/m 2 min 0 min 390 W/m 9,7 km/h (2 Bft) 95,74 %
02.07.2020 09:42 18,2 C 22,8 C 20,6 C 85 % 1010,6 hPa 0,0 l/m 2 min 0 min 628 W/m 6,4 km/h (2 Bft) 95,74 %
02.07.2020 09:44 18,3 C 24,4 C 22,2 C 86 % 1010,7 hPa 0,0 l/m 2 min 0 min 631 W/m 6,4 km/h (2 Bft) 93,62 %
02.07.2020 09:46 18,4 C 22,8 C 21,7 C 85 % 1010,7 hPa 0,0 l/m 2 min 0 min 629 W/m 16,1 km/h (3 Bft) 93,48 %
02.07.2020 09:48 18,6 C 23,3 C 22,2 C 84 % 1010,8 hPa 0,0 l/m 2 min 0 min 595 W/m 6,4 km/h (2 Bft) 100,00 %
02.07.2020 09:50 18,6 C 23,3 C 22,2 C 83 % 1010,7 hPa 0,0 l/m 2 min 0 min 630 W/m 12,9 km/h (3 Bft) 100,00 %
02.07.2020 09:52 18,8 C 25,0 C 23,3 C 85 % 1010,7 hPa 0,0 l/m 2 min 0 min 668 W/m 9,7 km/h (2 Bft) 97,87 %
02.07.2020 09:54 18,9 C 25,0 C 23,9 C 85 % 1010,7 hPa 0,0 l/m 2 min 0 min 675 W/m 12,9 km/h (3 Bft) 91,49 %
02.07.2020 09:56 19,1 C 25,0 C 23,9 C 84 % 1010,6 hPa 0,0 l/m 2 min 0 min 680 W/m 12,9 km/h (3 Bft) 95,74 %
02.07.2020 09:58 19,2 C 23,9 C 23,9 C 83 % 1010,7 hPa 0,0 l/m 2 min 0 min 696 W/m 22,5 km/h (4 Bft) 97,83 %
02.07.2020 10:00 19,4 C 23,9 C 23,3 C 82 % 1010,7 hPa 0,0 l/m 2 min 0 min 648 W/m 16,1 km/h (3 Bft) 97,87 %
02.07.2020 10:02 19,5 C 23,3 C 22,8 C 83 % 1010,7 hPa 0,0 l/m 2 min 0 min 448 W/m 6,4 km/h (2 Bft) 97,87 %
02.07.2020 10:04 19,6 C 23,3 C 22,2 C 82 % 1010,7 hPa 0,0 l/m 0 min 0 min 245 W/m 16,1 km/h (3 Bft) 97,87 %
02.07.2020 10:06 19,6 C 24,4 C 23,3 C 82 % 1010,7 hPa 0,0 l/m 2 min 0 min 592 W/m 12,9 km/h (3 Bft) 95,74 %
02.07.2020 10:08 19,7 C 23,9 C 22,8 C 81 % 1010,7 hPa 0,0 l/m 2 min 0 min 802 W/m 9,7 km/h (2 Bft) 97,87 %
02.07.2020 10:10 19,7 C 23,3 C 22,2 C 82 % 1010,7 hPa 0,0 l/m 2 min 0 min 572 W/m 9,7 km/h (2 Bft) 97,83 %
02.07.2020 10:12 19,7 C 22,2 C 21,1 C 81 % 1010,7 hPa 0,0 l/m 0 min 0 min 314 W/m 9,7 km/h (2 Bft) 97,87 %
02.07.2020 10:14 19,7 C 21,7 C 21,1 C 80 % 1010,7 hPa 0,0 l/m 0 min 0 min 294 W/m 6,4 km/h (2 Bft) 95,74 %
02.07.2020 10:16 19,7 C 22,8 C 21,7 C 80 % 1010,7 hPa 0,0 l/m 0 min 0 min 294 W/m 6,4 km/h (2 Bft) 97,87 %
02.07.2020 10:18 19,7 C 22,8 C 21,7 C 81 % 1010,7 hPa 0,0 l/m 0 min 0 min 294 W/m 9,7 km/h (2 Bft) 97,87 %
02.07.2020 10:20 19,7 C 23,3 C 22,2 C 80 % 1010,7 hPa 0,0 l/m 0 min 0 min 294 W/m 9,7 km/h (2 Bft) 97,83 %
02.07.2020 10:22 19,7 C 22,8 C 21,7 C 80 % 1010,7 hPa 0,0 l/m 0 min 0 min 294 W/m 6,4 km/h (2 Bft) 97,87 %
02.07.2020 10:24 19,8 C 22,2 C 21,1 C 80 % 1010,7 hPa 0,0 l/m 0 min 0 min 294 W/m 12,9 km/h (3 Bft) 97,87 %
02.07.2020 10:26 19,8 C 23,3 C 21,7 C 80 % 1010,8 hPa 0,0 l/m 0 min 0 min 294 W/m 12,9 km/h (3 Bft) 95,74 %
02.07.2020 10:28 19,8 C 23,3 C 22,2 C 80 % 1010,8 hPa 0,0 l/m 0 min 0 min 294 W/m 16,1 km/h (3 Bft) 97,87 %
02.07.2020 10:30 19,9 C 22,8 C 21,7 C 81 % 1010,8 hPa 0,0 l/m 0 min 0 min 273 W/m 12,9 km/h (3 Bft) 97,87 %
02.07.2020 10:32 19,9 C 21,1 C 20,6 C 80 % 1010,8 hPa 0,0 l/m 0 min 0 min 222 W/m 9,7 km/h (2 Bft) 97,83 %
02.07.2020 10:34 19,8 C 20,6 C 19,4 C 80 % 1010,9 hPa 0,0 l/m 0 min 0 min 232 W/m 12,9 km/h (3 Bft) 97,87 %
02.07.2020 10:36 19,8 C 20,6 C 19,4 C 81 % 1010,8 hPa 0,0 l/m 0 min 0 min 291 W/m 6,4 km/h (2 Bft) 97,87 %
02.07.2020 10:38 19,8 C 20,6 C 18,9 C 81 % 1010,9 hPa 0,0 l/m 0 min 0 min 272 W/m 6,4 km/h (2 Bft) 97,87 %
02.07.2020 10:40 19,8 C 20,0 C 18,9 C 81 % 1010,9 hPa 0,0 l/m 0 min 0 min 189 W/m 6,4 km/h (2 Bft) 97,87 %
02.07.2020 10:42 19,7 C 20,0 C 18,9 C 81 % 1010,9 hPa 0,0 l/m 0 min 0 min 232 W/m 6,4 km/h (2 Bft) 95,74 %
02.07.2020 10:44 19,7 C 20,0 C 18,3 C 81 % 1010,8 hPa 0,0 l/m 0 min 0 min 160 W/m 12,9 km/h (3 Bft) 95,65 %
02.07.2020 10:46 19,7 C 19,4 C 18,3 C 80 % 1010,8 hPa 0,0 l/m 0 min 0 min 135 W/m 12,9 km/h (3 Bft) 97,87 %
02.07.2020 10:48 19,6 C 19,4 C 18,3 C 80 % 1010,8 hPa 0,0 l/m 0 min 0 min 117 W/m 6,4 km/h (2 Bft) 97,87 %
02.07.2020 10:50 19,6 C 18,9 C 17,8 C 80 % 1010,8 hPa 0,0 l/m 0 min 0 min 118 W/m 6,4 km/h (2 Bft) 97,87 %
02.07.2020 10:52 19,6 C 18,9 C 17,8 C 80 % 1010,8 hPa 0,0 l/m 0 min 0 min 128 W/m 12,9 km/h (3 Bft) 97,87 %
02.07.2020 10:54 19,5 C 18,9 C 17,8 C 80 % 1010,8 hPa 0,0 l/m 0 min 0 min 170 W/m 6,4 km/h (2 Bft) 93,62 %
02.07.2020 10:56 19,4 C 18,9 C 17,8 C 80 % 1010,8 hPa 0,0 l/m 0 min 0 min 181 W/m 9,7 km/h (2 Bft) 97,83 %
02.07.2020 10:58 19,4 C 18,9 C 17,8 C 81 % 1010,8 hPa 0,0 l/m 0 min 0 min 207 W/m 6,4 km/h (2 Bft) 97,87 %
02.07.2020 11:00 19,3 C 19,4 C 17,8 C 82 % 1010,8 hPa 0,0 l/m 0 min 0 min 192 W/m 9,7 km/h (2 Bft) 97,87 %
02.07.2020 11:02 19,3 C 20,0 C 17,8 C 82 % 1010,8 hPa 0,0 l/m 0 min 0 min 252 W/m 9,7 km/h (2 Bft) 95,74 %
02.07.2020 11:04 19,3 C 20,0 C 17,8 C 82 % 1010,9 hPa 0,0 l/m 0 min 0 min 282 W/m 12,9 km/h (3 Bft) 97,87 %
02.07.2020 11:06 19,3 C 20,0 C 17,8 C 82 % 1010,9 hPa 0,0 l/m 0 min 0 min 184 W/m 16,1 km/h (3 Bft) 97,87 %
02.07.2020 11:08 19,3 C 19,4 C 17,8 C 81 % 1010,9 hPa 0,0 l/m 0 min 0 min 176 W/m 12,9 km/h (3 Bft) 97,83 %
02.07.2020 11:10 19,3 C 19,4 C 17,8 C 81 % 1010,9 hPa 0,0 l/m 0 min 0 min 172 W/m 6,4 km/h (2 Bft) 97,87 %
02.07.2020 11:12 19,3 C 18,9 C 17,8 C 81 % 1011,0 hPa 0,0 l/m 0 min 0 min 182 W/m 16,1 km/h (3 Bft) 100,00 %
02.07.2020 11:14 19,2 C 18,9 C 17,8 C 81 % 1011,0 hPa 0,0 l/m 0 min 0 min 174 W/m 12,9 km/h (3 Bft) 100,00 %
02.07.2020 11:16 19,2 C 18,9 C 17,8 C 81 % 1011,0 hPa 0,0 l/m 0 min 0 min 164 W/m 16,1 km/h (3 Bft) 100,00 %
02.07.2020 11:18 19,2 C 18,9 C 17,8 C 81 % 1011,0 hPa 0,2 l/m 0 min 0 min 193 W/m 16,1 km/h (3 Bft) 100,00 %
02.07.2020 11:20 19,2 C 20,0 C 18,3 C 81 % 1011,0 hPa 0,0 l/m 0 min 0 min 225 W/m 16,1 km/h (3 Bft) 100,00 %
02.07.2020 11:22 19,2 C 20,0 C 18,3 C 82 % 1011,0 hPa 0,0 l/m 0 min 0 min 255 W/m 12,9 km/h (3 Bft) 100,00 %
02.07.2020 11:24 19,2 C 20,0 C 18,3 C 82 % 1011,1 hPa 0,0 l/m 0 min 0 min 275 W/m 12,9 km/h (3 Bft) 97,87 %
02.07.2020 11:26 19,2 C 20,0 C 18,3 C 82 % 1011,1 hPa 0,0 l/m 0 min 0 min 224 W/m 12,9 km/h (3 Bft) 97,87 %
02.07.2020 11:28 19,2 C 20,0 C 18,3 C 82 % 1011,1 hPa 0,0 l/m 0 min 0 min 258 W/m 9,7 km/h (2 Bft) 95,74 %
02.07.2020 11:30 19,2 C 20,0 C 18,3 C 82 % 1011,0 hPa 0,0 l/m 0 min 0 min 252 W/m 12,9 km/h (3 Bft) 95,74 %
02.07.2020 11:32 19,3 C 20,0 C 18,3 C 82 % 1011,0 hPa 0,0 l/m 0 min 0 min 230 W/m 6,4 km/h (2 Bft) 93,48 %
02.07.2020 11:34 19,3 C 20,0 C 18,3 C 82 % 1011,1 hPa 0,0 l/m 0 min 0 min 258 W/m 9,7 km/h (2 Bft) 95,74 %
02.07.2020 11:36 19,3 C 20,0 C 18,3 C 81 % 1011,1 hPa 0,0 l/m 0 min 0 min 239 W/m 9,7 km/h (2 Bft) 100,00 %
02.07.2020 11:38 19,3 C 20,0 C 18,3 C 81 % 1011,1 hPa 0,0 l/m 0 min 0 min 201 W/m 12,9 km/h (3 Bft) 95,74 %
02.07.2020 11:40 19,3 C 20,0 C 18,3 C 81 % 1011,1 hPa 0,0 l/m 0 min 0 min 175 W/m 12,9 km/h (3 Bft) 95,74 %
02.07.2020 11:42 19,3 C 20,0 C 18,3 C 81 % 1011,1 hPa 0,0 l/m 0 min 0 min 205 W/m 12,9 km/h (3 Bft) 95,65 %
02.07.2020 11:44 19,3 C 20,6 C 18,3 C 80 % 1011,1 hPa 0,0 l/m 0 min 0 min 292 W/m 19,3 km/h (3 Bft) 95,74 %
02.07.2020 11:46 19,4 C 21,1 C 18,9 C 81 % 1011,1 hPa 0,0 l/m 0 min 0 min 330 W/m 6,4 km/h (2 Bft) 95,74 %
02.07.2020 11:48 19,4 C 21,1 C 18,9 C 81 % 1011,2 hPa 0,0 l/m 0 min 0 min 287 W/m 6,4 km/h (2 Bft) 93,62 %
02.07.2020 11:50 19,4 C 20,6 C 18,9 C 81 % 1011,2 hPa 0,0 l/m 0 min 0 min 258 W/m 16,1 km/h (3 Bft) 95,74 %
02.07.2020 11:52 19,5 C 20,6 C 18,9 C 80 % 1011,2 hPa 0,0 l/m 0 min 0 min 277 W/m 9,7 km/h (2 Bft) 95,74 %
02.07.2020 11:54 19,5 C 20,6 C 18,9 C 80 % 1011,2 hPa 0,0 l/m 0 min 0 min 303 W/m 12,9 km/h (3 Bft) 95,65 %
02.07.2020 11:56 19,6 C 20,6 C 18,9 C 80 % 1011,2 hPa 0,0 l/m 0 min 0 min 332 W/m 12,9 km/h (3 Bft) 93,62 %
02.07.2020 11:58 19,6 C 21,7 C 18,9 C 80 % 1011,2 hPa 0,0 l/m 0 min 0 min 378 W/m 16,1 km/h (3 Bft) 95,74 %
02.07.2020 12:00 19,6 C 22,2 C 19,4 C 80 % 1011,1 hPa 0,0 l/m 0 min 0 min 378 W/m 16,1 km/h (3 Bft) 95,74 %
02.07.2020 12:02 19,7 C 25,0 C 20,6 C 79 % 1011,1 hPa 0,0 l/m 0 min 0 min 378 W/m 6,4 km/h (2 Bft) 93,62 %
02.07.2020 12:04 19,9 C 25,0 C 21,1 C 80 % 1011,2 hPa 0,0 l/m 0 min 0 min 382 W/m 12,9 km/h (3 Bft) 97,87 %
02.07.2020 12:08 20,1 C 23,3 C 20,6 C 78 % 1011,2 hPa 0,0 l/m 4 min 0 min 413 W/m 22,5 km/h (4 Bft) 93,55 %
02.07.2020 12:10 20,2 C 22,2 C 20,0 C 77 % 1011,2 hPa 0,0 l/m 2 min 0 min 404 W/m 22,5 km/h (4 Bft) 97,87 %
02.07.2020 12:12 20,2 C 21,1 C 19,4 C 76 % 1011,2 hPa 0,0 l/m 0 min 0 min 255 W/m 22,5 km/h (4 Bft) 95,74 %
02.07.2020 12:14 20,3 C 20,6 C 19,4 C 76 % 1011,2 hPa 0,0 l/m 0 min 0 min 150 W/m 12,9 km/h (3 Bft) 100,00 %
02.07.2020 12:16 20,2 C 20,0 C 18,9 C 77 % 1011,2 hPa 0,0 l/m 0 min 0 min 104 W/m 9,7 km/h (2 Bft) 100,00 %
02.07.2020 12:18 20,2 C 19,4 C 18,3 C 77 % 1011,2 hPa 0,0 l/m 0 min 0 min 85 W/m 6,4 km/h (2 Bft) 95,65 %
02.07.2020 12:20 20,2 C 19,4 C 18,3 C 78 % 1011,3 hPa 0,0 l/m 0 min 0 min 93 W/m 6,4 km/h (2 Bft) 97,87 %
02.07.2020 12:22 20,2 C 20,0 C 18,3 C 79 % 1011,3 hPa 0,0 l/m 0 min 0 min 134 W/m 6,4 km/h (2 Bft) 95,74 %
02.07.2020 12:24 20,2 C 20,6 C 18,3 C 78 % 1011,2 hPa 0,0 l/m 0 min 0 min 225 W/m 9,7 km/h (2 Bft) 100,00 %
02.07.2020 12:26 20,3 C 21,1 C 18,3 C 78 % 1011,2 hPa 0,0 l/m 0 min 0 min 318 W/m 9,7 km/h (2 Bft) 97,87 %
02.07.2020 12:28 20,3 C 21,7 C 18,9 C 79 % 1011,3 hPa 0,0 l/m 0 min 0 min 370 W/m 6,4 km/h (2 Bft) 100,00 %
02.07.2020 12:30 20,3 C 22,2 C 18,9 C 78 % 1011,2 hPa 0,0 l/m 0 min 0 min 382 W/m 12,9 km/h (3 Bft) 100,00 %
02.07.2020 12:32 20,4 C 22,2 C 19,4 C 78 % 1011,3 hPa 0,0 l/m 0 min 0 min 383 W/m 16,1 km/h (3 Bft) 97,87 %
02.07.2020 12:34 20,4 C 22,2 C 19,4 C 77 % 1011,3 hPa 0,0 l/m 0 min 0 min 382 W/m 19,3 km/h (3 Bft) 100,00 %
02.07.2020 12:36 20,4 C 22,2 C 19,4 C 77 % 1011,3 hPa 0,0 l/m 0 min 0 min 363 W/m 16,1 km/h (3 Bft) 100,00 %
02.07.2020 12:38 20,4 C 22,2 C 20,0 C 76 % 1011,3 hPa 0,0 l/m 0 min 0 min 331 W/m 22,5 km/h (4 Bft) 100,00 %
02.07.2020 12:40 20,5 C 21,7 C 20,0 C 76 % 1011,3 hPa 0,0 l/m 0 min 0 min 333 W/m 25,7 km/h (4 Bft) 100,00 %
02.07.2020 12:42 20,6 C 22,2 C 19,4 C 77 % 1011,3 hPa 0,0 l/m 0 min 0 min 321 W/m 6,4 km/h (2 Bft) 100,00 %
02.07.2020 12:44 20,7 C 22,2 C 20,0 C 77 % 1011,3 hPa 0,0 l/m 0 min 0 min 278 W/m 12,9 km/h (3 Bft) 100,00 %
02.07.2020 12:46 20,7 C 21,7 C 20,0 C 77 % 1011,2 hPa 0,0 l/m 0 min 0 min 221 W/m 6,4 km/h (2 Bft) 100,00 %
02.07.2020 12:48 20,7 C 21,1 C 19,4 C 77 % 1011,3 hPa 0,0 l/m 0 min 0 min 164 W/m 16,1 km/h (3 Bft) 100,00 %
02.07.2020 12:50 20,7 C 20,6 C 19,4 C 77 % 1011,2 hPa 0,0 l/m 0 min 0 min 132 W/m 6,4 km/h (2 Bft) 100,00 %
02.07.2020 12:52 20,7 C 20,6 C 18,9 C 77 % 1011,2 hPa 0,0 l/m 0 min 0 min 121 W/m 6,4 km/h (2 Bft) 100,00 %
02.07.2020 12:54 20,7 C 20,0 C 18,3 C 77 % 1011,2 hPa 0,0 l/m 0 min 0 min 114 W/m 12,9 km/h (3 Bft) 100,00 %
02.07.2020 12:56 20,7 C 20,0 C 18,3 C 77 % 1011,2 hPa 0,0 l/m 0 min 0 min 105 W/m 12,9 km/h (3 Bft) 100,00 %
02.07.2020 12:58 20,7 C 20,0 C 18,3 C 76 % 1011,3 hPa 0,0 l/m 0 min 0 min 96 W/m 6,4 km/h (2 Bft) 100,00 %
02.07.2020 13:00 20,6 C 20,0 C 18,3 C 76 % 1011,3 hPa 0,0 l/m 0 min 0 min 97 W/m 6,4 km/h (2 Bft) 100,00 %
02.07.2020 13:02 20,6 C 19,4 C 17,8 C 76 % 1011,3 hPa 0,0 l/m 0 min 0 min 104 W/m 6,4 km/h (2 Bft) 95,74 %
02.07.2020 13:04 20,6 C 19,4 C 18,3 C 76 % 1011,3 hPa 0,0 l/m 0 min 0 min 97 W/m 9,7 km/h (2 Bft) 100,00 %
02.07.2020 13:06 20,5 C 19,4 C 18,3 C 76 % 1011,4 hPa 0,0 l/m 0 min 0 min 84 W/m 12,9 km/h (3 Bft) 100,00 %
02.07.2020 13:08 20,4 C 19,4 C 18,3 C 76 % 1011,4 hPa 0,0 l/m 0 min 0 min 84 W/m 12,9 km/h (3 Bft) 100,00 %
02.07.2020 13:10 20,4 C 19,4 C 18,3 C 75 % 1011,4 hPa 0,0 l/m 0 min 0 min 88 W/m 9,7 km/h (2 Bft) 100,00 %
02.07.2020 13:12 20,4 C 19,4 C 17,8 C 76 % 1011,4 hPa 0,0 l/m 0 min 0 min 88 W/m 9,7 km/h (2 Bft) 100,00 %
02.07.2020 13:14 20,3 C 18,9 C 17,8 C 76 % 1011,5 hPa 0,0 l/m 0 min 0 min 89 W/m 9,7 km/h (2 Bft) 100,00 %
02.07.2020 13:16 20,3 C 18,9 C 17,8 C 76 % 1011,5 hPa 0,0 l/m 0 min 0 min 87 W/m 9,7 km/h (2 Bft) 100,00 %
02.07.2020 13:18 20,2 C 18,9 C 17,8 C 77 % 1011,5 hPa 0,0 l/m 0 min 0 min 96 W/m 6,4 km/h (2 Bft) 100,00 %
02.07.2020 13:20 20,2 C 18,9 C 17,8 C 77 % 1011,5 hPa 0,0 l/m 0 min 0 min 105 W/m 9,7 km/h (2 Bft) 97,87 %
02.07.2020 13:22 20,2 C 19,4 C 18,3 C 78 % 1011,5 hPa 0,0 l/m 0 min 0 min 121 W/m 6,4 km/h (2 Bft) 95,74 %
02.07.2020 13:24 20,1 C 19,4 C 18,3 C 78 % 1011,5 hPa 0,0 l/m 0 min 0 min 156 W/m 6,4 km/h (2 Bft) 97,87 %
02.07.2020 13:26 20,1 C 20,0 C 18,3 C 78 % 1011,5 hPa 0,0 l/m 0 min 0 min 194 W/m 9,7 km/h (2 Bft) 97,87 %
02.07.2020 13:28 20,1 C 20,0 C 18,3 C 78 % 1011,5 hPa 0,0 l/m 0 min 0 min 213 W/m 9,7 km/h (2 Bft) 97,83 %
02.07.2020 13:30 20,1 C 20,6 C 18,3 C 78 % 1011,4 hPa 0,0 l/m 0 min 0 min 201 W/m 6,4 km/h (2 Bft) 100,00 %
02.07.2020 13:32 20,1 C 21,1 C 18,9 C 78 % 1011,4 hPa 0,0 l/m 0 min 0 min 210 W/m 16,1 km/h (3 Bft) 100,00 %
02.07.2020 13:34 20,1 C 21,1 C 18,9 C 78 % 1011,4 hPa 0,0 l/m 0 min 0 min 231 W/m 6,4 km/h (2 Bft) 100,00 %
02.07.2020 13:36 20,1 C 21,7 C 18,9 C 78 % 1011,4 hPa 0,0 l/m 0 min 0 min 254 W/m 6,4 km/h (2 Bft) 95,74 %
02.07.2020 13:38 20,2 C 21,7 C 18,9 C 78 % 1011,5 hPa 0,0 l/m 0 min 0 min 244 W/m 6,4 km/h (2 Bft) 97,87 %
02.07.2020 13:40 20,2 C 21,1 C 18,9 C 78 % 1011,4 hPa 0,0 l/m 0 min 0 min 230 W/m 12,9 km/h (3 Bft) 97,83 %
02.07.2020 13:42 20,2 C 21,1 C 18,9 C 78 % 1011,4 hPa 0,0 l/m 0 min 0 min 239 W/m 6,4 km/h (2 Bft) 100,00 %
02.07.2020 13:44 20,3 C 21,1 C 18,9 C 79 % 1011,4 hPa 0,0 l/m 0 min 0 min 245 W/m 6,4 km/h (2 Bft) 95,74 %
02.07.2020 13:46 20,3 C 21,7 C 18,9 C 78 % 1011,4 hPa 0,0 l/m 0 min 0 min 260 W/m 9,7 km/h (2 Bft) 97,87 %
02.07.2020 13:48 20,3 C 21,1 C 19,4 C 78 % 1011,4 hPa 0,0 l/m 0 min 0 min 254 W/m 9,7 km/h (2 Bft) 97,87 %
02.07.2020 13:50 20,4 C 21,1 C 19,4 C 78 % 1011,4 hPa 0,0 l/m 0 min 0 min 221 W/m 6,4 km/h (2 Bft) 97,83 %
02.07.2020 13:52 20,4 C 21,1 C 19,4 C 78 % 1011,4 hPa 0,0 l/m 0 min 0 min 221 W/m 12,9 km/h (3 Bft) 97,87 %
02.07.2020 13:54 20,5 C 21,1 C 19,4 C 77 % 1011,4 hPa 0,0 l/m 0 min 0 min 236 W/m 9,7 km/h (2 Bft) 97,87 %
02.07.2020 13:56 20,5 C 21,1 C 19,4 C 76 % 1011,3 hPa 0,0 l/m 0 min 0 min 285 W/m 9,7 km/h (2 Bft) 97,87 %
02.07.2020 13:58 20,6 C 21,7 C 19,4 C 77 % 1011,4 hPa 0,0 l/m 0 min 0 min 337 W/m 6,4 km/h (2 Bft) 95,74 %
02.07.2020 14:00 20,6 C 22,2 C 19,4 C 77 % 1011,3 hPa 0,0 l/m 0 min 0 min 304 W/m 6,4 km/h (2 Bft) 95,74 %
02.07.2020 14:02 20,6 C 22,2 C 19,4 C 76 % 1011,4 hPa 0,0 l/m 0 min 0 min 296 W/m 9,7 km/h (2 Bft) 95,65 %
02.07.2020 14:04 20,7 C 22,2 C 19,4 C 77 % 1011,4 hPa 0,0 l/m 0 min 0 min 293 W/m 6,4 km/h (2 Bft) 95,74 %
02.07.2020 14:06 20,8 C 22,2 C 19,4 C 78 % 1011,4 hPa 0,0 l/m 0 min 0 min 253 W/m 9,7 km/h (2 Bft) 95,74 %
02.07.2020 14:08 20,8 C 21,7 C 19,4 C 77 % 1011,4 hPa 0,0 l/m 0 min 0 min 232 W/m 6,4 km/h (2 Bft) 93,62 %
02.07.2020 14:10 20,9 C 21,7 C 19,4 C 77 % 1011,4 hPa 0,0 l/m 0 min 0 min 257 W/m 6,4 km/h (2 Bft) 97,87 %
02.07.2020 14:12 20,9 C 22,2 C 19,4 C 77 % 1011,4 hPa 0,0 l/m 0 min 0 min 303 W/m 6,4 km/h (2 Bft) 93,62 %
02.07.2020 14:14 20,9 C 22,8 C 19,4 C 76 % 1011,4 hPa 0,0 l/m 0 min 0 min 346 W/m 6,4 km/h (2 Bft) 95,65 %
02.07.2020 14:16 21,0 C 22,8 C 19,4 C 76 % 1011,4 hPa 0,0 l/m 0 min 0 min 390 W/m 12,9 km/h (3 Bft) 93,62 %
02.07.2020 14:18 21,1 C 23,3 C 19,4 C 76 % 1011,4 hPa 0,0 l/m 0 min 0 min 413 W/m 9,7 km/h (2 Bft) 95,74 %
02.07.2020 14:20 21,1 C 22,8 C 20,0 C 76 % 1011,4 hPa 0,0 l/m 0 min 0 min 403 W/m 9,7 km/h (2 Bft) 95,74 %
02.07.2020 14:22 21,2 C 23,3 C 20,0 C 75 % 1011,4 hPa 0,0 l/m 0 min 0 min 392 W/m 12,9 km/h (3 Bft) 95,74 %
02.07.2020 14:24 21,2 C 22,8 C 20,0 C 75 % 1011,4 hPa 0,0 l/m 2 min 0 min 418 W/m 19,3 km/h (3 Bft) 93,62 %
02.07.2020 14:26 21,3 C 23,3 C 20,6 C 75 % 1011,3 hPa 0,0 l/m 0 min 0 min 396 W/m 6,4 km/h (2 Bft) 93,48 %
02.07.2020 14:28 21,3 C 23,3 C 20,6 C 75 % 1011,3 hPa 0,0 l/m 0 min 0 min 389 W/m 19,3 km/h (3 Bft) 91,49 %
02.07.2020 14:30 21,4 C 22,8 C 20,6 C 73 % 1011,4 hPa 0,0 l/m 0 min 0 min 397 W/m 25,7 km/h (4 Bft) 93,75 %
02.07.2020 14:32 21,4 C 22,8 C 20,6 C 74 % 1011,4 hPa 0,0 l/m 0 min 0 min 403 W/m 12,9 km/h (3 Bft) 93,75 %
02.07.2020 14:34 21,5 C 22,8 C 20,6 C 73 % 1011,4 hPa 0,0 l/m 0 min 0 min 410 W/m 19,3 km/h (3 Bft) 93,62 %
02.07.2020 14:36 21,5 C 23,3 C 20,6 C 73 % 1011,4 hPa 0,0 l/m 2 min 0 min 422 W/m 12,9 km/h (3 Bft) 93,62 %
02.07.2020 14:38 21,6 C 23,9 C 20,6 C 73 % 1011,3 hPa 0,0 l/m 2 min 0 min 462 W/m 9,7 km/h (2 Bft) 95,65 %
02.07.2020 14:40 21,7 C 25,6 C 21,1 C 74 % 1011,3 hPa 0,0 l/m 2 min 0 min 487 W/m 12,9 km/h (3 Bft) 95,74 %
02.07.2020 14:42 21,8 C 25,6 C 21,7 C 73 % 1011,3 hPa 0,0 l/m 2 min 0 min 487 W/m 19,3 km/h (3 Bft) 91,49 %
02.07.2020 14:44 21,8 C 27,2 C 21,7 C 72 % 1011,2 hPa 0,0 l/m 2 min 0 min 1043 W/m 19,3 km/h (3 Bft) 95,74 %
02.07.2020 14:46 21,9 C 28,3 C 21,7 C 72 % 1011,3 hPa 0,0 l/m 2 min 0 min 1118 W/m 16,1 km/h (3 Bft) 93,62 %
02.07.2020 14:48 22,1 C 27,8 C 21,7 C 71 % 1011,2 hPa 0,0 l/m 2 min 0 min 1107 W/m 19,3 km/h (3 Bft) 95,65 %
02.07.2020 14:50 22,2 C 28,9 C 21,7 C 72 % 1011,2 hPa 0,0 l/m 2 min 0 min 1113 W/m 19,3 km/h (3 Bft) 95,74 %
02.07.2020 14:52 22,4 C 27,8 C 21,7 C 71 % 1011,3 hPa 0,0 l/m 2 min 0 min 1100 W/m 22,5 km/h (4 Bft) 97,87 %
02.07.2020 14:54 22,5 C 25,0 C 21,7 C 69 % 1011,2 hPa 0,0 l/m 2 min 0 min 480 W/m 19,3 km/h (3 Bft) 97,87 %
02.07.2020 14:56 22,5 C 23,9 C 21,1 C 69 % 1011,2 hPa 0,0 l/m 0 min 0 min 242 W/m 19,3 km/h (3 Bft) 97,87 %
02.07.2020 14:58 22,5 C 22,8 C 20,6 C 69 % 1011,2 hPa 0,0 l/m 0 min 0 min 206 W/m 6,4 km/h (2 Bft) 97,87 %
02.07.2020 15:00 22,5 C 22,2 C 20,6 C 69 % 1011,2 hPa 0,0 l/m 0 min 0 min 178 W/m 22,5 km/h (4 Bft) 97,83 %
02.07.2020 15:02 22,4 C 21,7 C 20,6 C 68 % 1011,2 hPa 0,0 l/m 0 min 0 min 184 W/m 22,5 km/h (4 Bft) 97,92 %
02.07.2020 15:04 22,4 C 21,1 C 20,6 C 69 % 1011,2 hPa 0,0 l/m 0 min 0 min 167 W/m 19,3 km/h (3 Bft) 97,87 %
02.07.2020 15:06 22,3 C 21,1 C 20,6 C 69 % 1011,3 hPa 0,0 l/m 0 min 0 min 136 W/m 19,3 km/h (3 Bft) 97,87 %
02.07.2020 15:08 22,3 C 21,1 C 20,0 C 69 % 1011,4 hPa 0,0 l/m 0 min 0 min 122 W/m 12,9 km/h (3 Bft) 97,87 %
02.07.2020 15:10 22,2 C 20,6 C 20,0 C 70 % 1011,4 hPa 0,0 l/m 0 min 0 min 106 W/m 12,9 km/h (3 Bft) 95,74 %
02.07.2020 15:12 22,1 C 20,6 C 20,0 C 71 % 1011,4 hPa 0,0 l/m 0 min 0 min 97 W/m 12,9 km/h (3 Bft) 100,00 %
02.07.2020 15:14 22,1 C 20,6 C 20,0 C 71 % 1011,4 hPa 0,0 l/m 0 min 0 min 102 W/m 6,4 km/h (2 Bft) 97,87 %
02.07.2020 15:16 22,0 C 20,6 C 19,4 C 72 % 1011,4 hPa 0,0 l/m 0 min 0 min 112 W/m 9,7 km/h (2 Bft) 100,00 %
02.07.2020 15:18 21,9 C 18,3 C 19,4 C 73 % 1011,4 hPa 0,0 l/m 0 min 2 min 122 W/m 19,3 km/h (3 Bft) 97,87 %
02.07.2020 15:20 21,8 C 17,2 C 18,9 C 74 % 1011,4 hPa 0,0 l/m 0 min 2 min 132 W/m 12,9 km/h (3 Bft) 100,00 %
02.07.2020 15:22 21,7 C 17,2 C 18,9 C 76 % 1011,4 hPa 0,0 l/m 0 min 2 min 143 W/m 12,9 km/h (3 Bft) 97,87 %
02.07.2020 15:24 21,6 C 17,2 C 18,9 C 77 % 1011,4 hPa 0,0 l/m 0 min 2 min 146 W/m 9,7 km/h (2 Bft) 97,83 %
02.07.2020 15:26 21,4 C 17,8 C 18,9 C 78 % 1011,4 hPa 0,0 l/m 0 min 0 min 152 W/m 6,4 km/h (2 Bft) 100,00 %
02.07.2020 15:28 21,4 C 17,8 C 18,3 C 78 % 1011,5 hPa 0,0 l/m 0 min 0 min 161 W/m 9,7 km/h (2 Bft) 97,87 %
02.07.2020 15:30 21,3 C 18,3 C 18,9 C 79 % 1011,4 hPa 0,0 l/m 0 min 0 min 165 W/m 12,9 km/h (3 Bft) 100,00 %
02.07.2020 15:32 21,2 C 18,3 C 18,3 C 79 % 1011,4 hPa 0,0 l/m 0 min 0 min 170 W/m 9,7 km/h (2 Bft) 100,00 %
02.07.2020 15:34 21,1 C 18,9 C 18,3 C 79 % 1011,3 hPa 0,0 l/m 0 min 0 min 192 W/m 12,9 km/h (3 Bft) 100,00 %
02.07.2020 15:36 21,0 C 18,9 C 18,9 C 80 % 1011,3 hPa 0,0 l/m 0 min 0 min 221 W/m 12,9 km/h (3 Bft) 97,87 %
02.07.2020 15:38 20,9 C 19,4 C 18,9 C 80 % 1011,4 hPa 0,0 l/m 0 min 0 min 234 W/m 12,9 km/h (3 Bft) 100,00 %
02.07.2020 15:40 20,9 C 19,4 C 18,9 C 80 % 1011,4 hPa 0,0 l/m 0 min 0 min 257 W/m 16,1 km/h (3 Bft) 100,00 %
02.07.2020 15:42 20,8 C 20,0 C 18,9 C 79 % 1011,4 hPa 0,0 l/m 0 min 0 min 304 W/m 19,3 km/h (3 Bft) 100,00 %
02.07.2020 15:44 20,7 C 21,1 C 18,9 C 79 % 1011,5 hPa 0,0 l/m 2 min 0 min 451 W/m 16,1 km/h (3 Bft) 97,87 %
02.07.2020 15:46 20,7 C 22,8 C 19,4 C 79 % 1011,4 hPa 0,0 l/m 2 min 0 min 532 W/m 12,9 km/h (3 Bft) 100,00 %
02.07.2020 15:48 20,8 C 24,4 C 20,0 C 80 % 1011,4 hPa 0,0 l/m 2 min 0 min 866 W/m 12,9 km/h (3 Bft) 100,00 %
02.07.2020 15:50 20,9 C 26,1 C 20,0 C 80 % 1011,3 hPa 0,0 l/m 2 min 0 min 949 W/m 19,3 km/h (3 Bft) 100,00 %
02.07.2020 15:52 21,1 C 26,1 C 20,6 C 80 % 1011,3 hPa 0,0 l/m 2 min 0 min 910 W/m 12,9 km/h (3 Bft) 100,00 %
02.07.2020 15:54 21,2 C 26,1 C 20,6 C 79 % 1011,3 hPa 0,0 l/m 2 min 0 min 901 W/m 12,9 km/h (3 Bft) 100,00 %
02.07.2020 15:56 21,3 C 26,1 C 20,6 C 78 % 1011,3 hPa 0,0 l/m 2 min 0 min 883 W/m 19,3 km/h (3 Bft) 100,00 %
02.07.2020 15:58 21,4 C 26,7 C 20,6 C 77 % 1011,3 hPa 0,0 l/m 2 min 0 min 879 W/m 19,3 km/h (3 Bft) 100,00 %
02.07.2020 16:00 21,6 C 26,7 C 20,6 C 75 % 1011,2 hPa 0,0 l/m 2 min 0 min 907 W/m 16,1 km/h (3 Bft) 100,00 %
02.07.2020 16:02 21,6 C 27,8 C 20,6 C 73 % 1011,2 hPa 0,0 l/m 2 min 0 min 903 W/m 19,3 km/h (3 Bft) 100,00 %
02.07.2020 16:04 21,7 C 26,7 C 20,6 C 71 % 1011,2 hPa 0,0 l/m 2 min 0 min 885 W/m 19,3 km/h (3 Bft) 97,87 %
02.07.2020 16:06 21,8 C 26,1 C 20,6 C 70 % 1011,2 hPa 0,0 l/m 2 min 0 min 867 W/m 19,3 km/h (3 Bft) 100,00 %
02.07.2020 16:08 22,0 C 26,1 C 21,1 C 70 % 1011,2 hPa 0,0 l/m 2 min 0 min 862 W/m 19,3 km/h (3 Bft) 100,00 %
02.07.2020 16:10 22,1 C 26,7 C 21,1 C 68 % 1011,2 hPa 0,0 l/m 2 min 0 min 854 W/m 22,5 km/h (4 Bft) 97,87 %
02.07.2020 16:12 22,2 C 26,7 C 21,1 C 67 % 1011,2 hPa 0,0 l/m 2 min 0 min 848 W/m 22,5 km/h (4 Bft) 100,00 %
02.07.2020 16:14 22,3 C 26,1 C 21,1 C 67 % 1011,2 hPa 0,0 l/m 2 min 0 min 840 W/m 19,3 km/h (3 Bft) 100,00 %
02.07.2020 16:16 22,5 C 27,2 C 21,1 C 68 % 1011,1 hPa 0,0 l/m 2 min 0 min 835 W/m 16,1 km/h (3 Bft) 97,87 %
02.07.2020 16:18 22,7 C 27,8 C 21,1 C 69 % 1011,1 hPa 0,0 l/m 2 min 0 min 849 W/m 6,4 km/h (2 Bft) 100,00 %
02.07.2020 16:20 22,8 C 27,8 C 21,1 C 69 % 1011,1 hPa 0,0 l/m 2 min 0 min 853 W/m 12,9 km/h (3 Bft) 100,00 %
02.07.2020 16:22 22,9 C 27,8 C 21,1 C 67 % 1011,2 hPa 0,0 l/m 2 min 0 min 882 W/m 19,3 km/h (3 Bft) 100,00 %
02.07.2020 16:24 23,0 C 26,1 C 21,1 C 66 % 1011,1 hPa 0,0 l/m 2 min 0 min 875 W/m 19,3 km/h (3 Bft) 100,00 %
02.07.2020 16:26 23,1 C 24,4 C 21,1 C 65 % 1011,1 hPa 0,0 l/m 0 min 0 min 222 W/m 16,1 km/h (3 Bft) 97,87 %
02.07.2020 16:28 23,1 C 23,3 C 21,1 C 64 % 1011,2 hPa 0,0 l/m 0 min 0 min 228 W/m 12,9 km/h (3 Bft) 97,87 %
02.07.2020 16:30 23,1 C 22,8 C 21,1 C 64 % 1011,2 hPa 0,0 l/m 0 min 0 min 190 W/m 22,5 km/h (4 Bft) 95,74 %
02.07.2020 16:32 23,0 C 22,2 C 20,6 C 65 % 1011,2 hPa 0,0 l/m 0 min 0 min 124 W/m 19,3 km/h (3 Bft) 97,87 %
02.07.2020 16:34 22,8 C 21,1 C 20,6 C 67 % 1011,4 hPa 0,0 l/m 0 min 0 min 98 W/m 25,7 km/h (4 Bft) 97,87 %
02.07.2020 16:36 22,5 C 20,0 C 19,4 C 69 % 1011,7 hPa 0,0 l/m 0 min 0 min 101 W/m 19,3 km/h (3 Bft) 97,87 %
02.07.2020 16:38 22,2 C 19,4 C 18,9 C 70 % 1011,7 hPa 0,0 l/m 0 min 0 min 87 W/m 29,0 km/h (5 Bft) 97,87 %
02.07.2020 16:40 21,8 C 18,9 C 18,3 C 71 % 1011,8 hPa 0,0 l/m 0 min 0 min 78 W/m 9,7 km/h (2 Bft) 95,74 %
02.07.2020 16:42 21,6 C 18,9 C 18,3 C 73 % 1011,8 hPa 0,0 l/m 0 min 0 min 90 W/m 16,1 km/h (3 Bft) 97,83 %
02.07.2020 16:44 21,3 C 18,9 C 17,8 C 73 % 1011,8 hPa 0,0 l/m 0 min 0 min 116 W/m 9,7 km/h (2 Bft) 97,87 %
02.07.2020 16:46 21,1 C 18,9 C 17,8 C 74 % 1011,9 hPa 0,0 l/m 0 min 0 min 128 W/m 16,1 km/h (3 Bft) 97,87 %
02.07.2020 16:48 20,8 C 18,9 C 17,8 C 75 % 1011,9 hPa 0,0 l/m 0 min 0 min 113 W/m 9,7 km/h (2 Bft) 97,87 %
02.07.2020 16:50 20,7 C 18,3 C 17,8 C 75 % 1011,9 hPa 0,0 l/m 0 min 2 min 103 W/m 9,7 km/h (2 Bft) 95,74 %
02.07.2020 16:52 20,6 C 18,3 C 17,8 C 76 % 1011,9 hPa 0,0 l/m 0 min 0 min 88 W/m 9,7 km/h (2 Bft) 97,87 %
02.07.2020 16:54 20,4 C 18,3 C 17,2 C 76 % 1012,0 hPa 0,0 l/m 0 min 0 min 70 W/m 6,4 km/h (2 Bft) 97,83 %
02.07.2020 16:56 20,3 C 17,8 C 17,2 C 77 % 1012,0 hPa 0,0 l/m 0 min 0 min 83 W/m 12,9 km/h (3 Bft) 95,74 %
02.07.2020 16:58 20,1 C 17,2 C 17,2 C 77 % 1012,0 hPa 0,0 l/m 0 min 2 min 92 W/m 9,7 km/h (2 Bft) 93,62 %
02.07.2020 17:00 20,0 C 16,7 C 17,2 C 78 % 1012,1 hPa 0,0 l/m 0 min 2 min 88 W/m 6,4 km/h (2 Bft) 95,74 %
02.07.2020 17:02 19,8 C 16,7 C 17,2 C 79 % 1012,1 hPa 0,0 l/m 0 min 2 min 122 W/m 6,4 km/h (2 Bft) 97,92 %
02.07.2020 17:04 19,8 C 16,7 C 16,7 C 81 % 1012,0 hPa 0,0 l/m 0 min 2 min 134 W/m 6,4 km/h (2 Bft) 95,74 %
02.07.2020 17:06 19,7 C 16,7 C 16,7 C 81 % 1012,1 hPa 0,0 l/m 0 min 2 min 115 W/m 6,4 km/h (2 Bft) 97,83 %
02.07.2020 17:08 19,6 C 16,7 C 16,7 C 82 % 1012,1 hPa 0,0 l/m 0 min 0 min 95 W/m 6,4 km/h (2 Bft) 95,74 %
02.07.2020 17:10 19,6 C 17,2 C 17,2 C 82 % 1012,2 hPa 0,0 l/m 0 min 0 min 73 W/m 6,4 km/h (2 Bft) 97,87 %
02.07.2020 17:12 19,4 C 17,2 C 17,2 C 83 % 1012,2 hPa 0,0 l/m 0 min 0 min 75 W/m 6,4 km/h (2 Bft) 100,00 %
02.07.2020 17:14 19,4 C 17,2 C 17,2 C 83 % 1012,2 hPa 0,0 l/m 0 min 0 min 91 W/m 3,2 km/h (1 Bft) 97,87 %
02.07.2020 17:16 19,3 C 17,2 C 17,2 C 84 % 1012,2 hPa 0,0 l/m 0 min 0 min 107 W/m 3,2 km/h (1 Bft) 100,00 %
02.07.2020 17:18 19,3 C 17,8 C 17,2 C 84 % 1012,0 hPa 0,0 l/m 0 min 0 min 111 W/m 3,2 km/h (1 Bft) 97,83 %
02.07.2020 17:20 19,3 C 17,8 C 17,2 C 84 % 1012,1 hPa 0,0 l/m 0 min 0 min 121 W/m 6,4 km/h (2 Bft) 97,87 %
02.07.2020 17:22 19,2 C 18,3 C 17,2 C 85 % 1012,1 hPa 0,0 l/m 0 min 0 min 129 W/m 6,4 km/h (2 Bft) 97,87 %
02.07.2020 17:24 19,1 C 18,3 C 17,2 C 84 % 1012,0 hPa 0,0 l/m 0 min 0 min 143 W/m 6,4 km/h (2 Bft) 95,74 %
02.07.2020 17:26 19,1 C 18,3 C 17,2 C 84 % 1012,0 hPa 0,0 l/m 0 min 0 min 151 W/m 9,7 km/h (2 Bft) 100,00 %
02.07.2020 17:28 19,1 C 18,9 C 17,2 C 85 % 1011,9 hPa 0,0 l/m 0 min 0 min 171 W/m 6,4 km/h (2 Bft) 97,87 %
02.07.2020 17:30 19,1 C 19,4 C 17,8 C 85 % 1011,9 hPa 0,0 l/m 0 min 0 min 211 W/m 12,9 km/h (3 Bft) 93,62 %
02.07.2020 17:32 19,1 C 20,0 C 17,8 C 85 % 1012,0 hPa 0,0 l/m 0 min 0 min 267 W/m 6,4 km/h (2 Bft) 93,75 %
02.07.2020 17:34 19,1 C 20,0 C 17,8 C 85 % 1012,1 hPa 0,0 l/m 0 min 0 min 281 W/m 6,4 km/h (2 Bft) 95,74 %
02.07.2020 17:36 19,1 C 20,0 C 17,8 C 85 % 1012,0 hPa 0,0 l/m 0 min 0 min 251 W/m 9,7 km/h (2 Bft) 95,74 %
02.07.2020 17:38 19,1 C 19,4 C 18,3 C 85 % 1012,0 hPa 0,0 l/m 0 min 0 min 239 W/m 6,4 km/h (2 Bft) 95,74 %
02.07.2020 17:40 19,1 C 19,4 C 18,3 C 85 % 1012,0 hPa 0,0 l/m 0 min 0 min 204 W/m 9,7 km/h (2 Bft) 95,74 %
02.07.2020 17:42 19,1 C 19,4 C 17,8 C 84 % 1012,0 hPa 0,0 l/m 0 min 0 min 183 W/m 9,7 km/h (2 Bft) 95,74 %
02.07.2020 17:44 19,1 C 18,9 C 17,8 C 84 % 1012,0 hPa 0,0 l/m 0 min 0 min 153 W/m 9,7 km/h (2 Bft) 95,65 %
02.07.2020 17:46 19,1 C 18,9 C 17,8 C 84 % 1012,1 hPa 0,0 l/m 0 min 0 min 117 W/m 9,7 km/h (2 Bft) 95,74 %
02.07.2020 17:48 19,1 C 18,9 C 17,8 C 83 % 1012,1 hPa 0,0 l/m 0 min 0 min 98 W/m 3,2 km/h (1 Bft) 95,74 %
02.07.2020 17:50 19,1 C 18,9 C 17,8 C 83 % 1012,1 hPa 0,0 l/m 0 min 0 min 109 W/m 6,4 km/h (2 Bft) 95,74 %
02.07.2020 17:52 19,1 C 18,9 C 17,8 C 83 % 1012,1 hPa 0,0 l/m 0 min 0 min 151 W/m 9,7 km/h (2 Bft) 91,49 %
02.07.2020 17:54 19,1 C 18,9 C 17,8 C 83 % 1012,2 hPa 0,0 l/m 0 min 0 min 198 W/m 12,9 km/h (3 Bft) 95,74 %
02.07.2020 17:56 19,1 C 19,4 C 17,8 C 83 % 1012,0 hPa 0,0 l/m 0 min 0 min 247 W/m 9,7 km/h (2 Bft) 95,65 %
02.07.2020 17:58 19,1 C 19,4 C 17,8 C 83 % 1012,1 hPa 0,0 l/m 0 min 0 min 223 W/m 9,7 km/h (2 Bft) 95,74 %
02.07.2020 18:00 19,1 C 19,4 C 17,8 C 83 % 1012,0 hPa 0,0 l/m 0 min 0 min 217 W/m 12,9 km/h (3 Bft) 95,74 %
02.07.2020 18:02 19,1 C 19,4 C 17,8 C 82 % 1012,1 hPa 0,0 l/m 0 min 0 min 228 W/m 6,4 km/h (2 Bft) 93,75 %
02.07.2020 18:04 19,2 C 19,4 C 18,3 C 82 % 1012,1 hPa 0,0 l/m 0 min 0 min 178 W/m 9,7 km/h (2 Bft) 95,74 %
02.07.2020 18:08 19,1 C 18,9 C 17,8 C 82 % 1012,2 hPa 0,0 l/m 0 min 0 min 97 W/m 12,9 km/h (3 Bft) 94,62 %
02.07.2020 18:10 19,1 C 18,3 C 17,8 C 82 % 1012,2 hPa 0,0 l/m 0 min 0 min 66 W/m 9,7 km/h (2 Bft) 95,74 %
02.07.2020 18:12 19,1 C 17,8 C 17,8 C 82 % 1012,3 hPa 0,0 l/m 0 min 0 min 52 W/m 9,7 km/h (2 Bft) 95,74 %
02.07.2020 18:14 19,1 C 17,8 C 17,8 C 82 % 1012,3 hPa 0,0 l/m 0 min 0 min 47 W/m 12,9 km/h (3 Bft) 95,74 %
02.07.2020 18:16 19,0 C 17,8 C 17,8 C 82 % 1012,3 hPa 0,0 l/m 0 min 0 min 45 W/m 12,9 km/h (3 Bft) 95,74 %
02.07.2020 18:18 19,0 C 17,8 C 17,2 C 82 % 1012,3 hPa 0,0 l/m 0 min 0 min 54 W/m 16,1 km/h (3 Bft) 95,65 %
02.07.2020 18:20 18,9 C 17,8 C 17,2 C 82 % 1012,4 hPa 0,0 l/m 0 min 0 min 56 W/m 12,9 km/h (3 Bft) 95,74 %
02.07.2020 18:22 18,9 C 17,8 C 17,2 C 82 % 1012,3 hPa 0,0 l/m 0 min 0 min 55 W/m 16,1 km/h (3 Bft) 97,87 %
02.07.2020 18:24 18,8 C 17,8 C 17,2 C 82 % 1012,4 hPa 0,0 l/m 0 min 0 min 54 W/m 16,1 km/h (3 Bft) 100,00 %
02.07.2020 18:26 18,8 C 17,8 C 17,2 C 83 % 1012,4 hPa 0,0 l/m 0 min 0 min 50 W/m 9,7 km/h (2 Bft) 100,00 %
02.07.2020 18:28 18,8 C 17,2 C 17,2 C 83 % 1012,4 hPa 0,0 l/m 0 min 0 min 41 W/m 9,7 km/h (2 Bft) 100,00 %
02.07.2020 18:30 18,7 C 17,2 C 17,2 C 83 % 1012,4 hPa 0,0 l/m 0 min 0 min 41 W/m 16,1 km/h (3 Bft) 100,00 %
02.07.2020 18:32 18,7 C 17,2 C 17,2 C 83 % 1012,4 hPa 0,0 l/m 0 min 0 min 52 W/m 16,1 km/h (3 Bft) 97,92 %
02.07.2020 18:34 18,6 C 17,2 C 17,2 C 83 % 1012,4 hPa 0,0 l/m 0 min 0 min 63 W/m 9,7 km/h (2 Bft) 100,00 %
02.07.2020 18:36 18,6 C 17,2 C 17,2 C 83 % 1012,4 hPa 0,0 l/m 0 min 0 min 74 W/m 6,4 km/h (2 Bft) 100,00 %
02.07.2020 18:38 18,6 C 17,8 C 17,2 C 83 % 1012,4 hPa 0,0 l/m 0 min 0 min 81 W/m 9,7 km/h (2 Bft) 100,00 %
02.07.2020 18:40 18,6 C 17,8 C 17,2 C 83 % 1012,4 hPa 0,0 l/m 0 min 0 min 100 W/m 6,4 km/h (2 Bft) 100,00 %
02.07.2020 18:42 18,6 C 18,3 C 17,2 C 84 % 1012,4 hPa 0,0 l/m 0 min 0 min 126 W/m 12,9 km/h (3 Bft) 97,83 %
02.07.2020 18:44 18,6 C 18,9 C 17,2 C 84 % 1012,4 hPa 0,0 l/m 0 min 0 min 148 W/m 6,4 km/h (2 Bft) 100,00 %
02.07.2020 18:46 18,6 C 18,9 C 17,2 C 84 % 1012,4 hPa 0,0 l/m 0 min 0 min 152 W/m 6,4 km/h (2 Bft) 97,87 %
02.07.2020 18:48 18,6 C 18,9 C 17,8 C 84 % 1012,5 hPa 0,0 l/m 0 min 0 min 142 W/m 16,1 km/h (3 Bft) 100,00 %
02.07.2020 18:50 18,6 C 18,9 C 17,8 C 84 % 1012,5 hPa 0,0 l/m 0 min 0 min 188 W/m 12,9 km/h (3 Bft) 100,00 %
02.07.2020 18:52 18,6 C 18,9 C 17,8 C 83 % 1012,5 hPa 0,0 l/m 2 min 0 min 257 W/m 19,3 km/h (3 Bft) 100,00 %
02.07.2020 18:54 18,6 C 18,9 C 17,8 C 83 % 1012,5 hPa 0,0 l/m 2 min 0 min 218 W/m 16,1 km/h (3 Bft) 100,00 %
02.07.2020 18:56 18,6 C 18,9 C 17,8 C 83 % 1012,5 hPa 0,0 l/m 0 min 0 min 193 W/m 16,1 km/h (3 Bft) 100,00 %
02.07.2020 18:58 18,7 C 18,9 C 17,8 C 83 % 1012,5 hPa 0,0 l/m 0 min 0 min 172 W/m 16,1 km/h (3 Bft) 100,00 %
02.07.2020 19:00 18,7 C 18,9 C 17,8 C 83 % 1012,5 hPa 0,0 l/m 0 min 0 min 153 W/m 9,7 km/h (2 Bft) 100,00 %
02.07.2020 19:02 18,7 C 18,9 C 17,8 C 83 % 1012,5 hPa 0,0 l/m 0 min 0 min 147 W/m 6,4 km/h (2 Bft) 97,92 %
02.07.2020 19:04 18,8 C 19,4 C 17,8 C 83 % 1012,4 hPa 0,0 l/m 0 min 0 min 144 W/m 6,4 km/h (2 Bft) 97,83 %
02.07.2020 19:06 18,8 C 19,4 C 17,8 C 83 % 1012,5 hPa 0,0 l/m 0 min 0 min 148 W/m 6,4 km/h (2 Bft) 97,87 %
02.07.2020 19:08 18,8 C 19,4 C 17,8 C 83 % 1012,5 hPa 0,0 l/m 0 min 0 min 150 W/m 6,4 km/h (2 Bft) 97,87 %
02.07.2020 19:10 18,9 C 19,4 C 17,8 C 84 % 1012,5 hPa 0,0 l/m 0 min 0 min 130 W/m 6,4 km/h (2 Bft) 95,74 %
02.07.2020 19:12 18,9 C 18,9 C 17,8 C 83 % 1012,5 hPa 0,0 l/m 0 min 0 min 103 W/m 6,4 km/h (2 Bft) 95,74 %
02.07.2020 19:14 18,9 C 18,9 C 17,8 C 83 % 1012,6 hPa 0,0 l/m 0 min 0 min 117 W/m 9,7 km/h (2 Bft) 97,87 %
02.07.2020 19:16 18,9 C 19,4 C 17,8 C 83 % 1012,6 hPa 0,0 l/m 2 min 0 min 190 W/m 9,7 km/h (2 Bft) 97,83 %
02.07.2020 19:18 19,0 C 19,4 C 17,8 C 83 % 1012,6 hPa 0,0 l/m 2 min 0 min 190 W/m 12,9 km/h (3 Bft) 95,74 %
02.07.2020 19:20 19,1 C 18,9 C 17,8 C 83 % 1012,6 hPa 0,0 l/m 2 min 0 min 186 W/m 9,7 km/h (2 Bft) 97,87 %
02.07.2020 19:22 19,1 C 18,9 C 17,8 C 83 % 1012,6 hPa 0,0 l/m 0 min 0 min 94 W/m 6,4 km/h (2 Bft) 95,74 %
02.07.2020 19:24 19,1 C 19,4 C 17,8 C 83 % 1012,6 hPa 0,0 l/m 2 min 0 min 176 W/m 6,4 km/h (2 Bft) 97,87 %
02.07.2020 19:26 19,1 C 19,4 C 17,8 C 83 % 1012,5 hPa 0,0 l/m 2 min 0 min 367 W/m 6,4 km/h (2 Bft) 97,87 %
02.07.2020 19:28 19,2 C 19,4 C 17,8 C 83 % 1012,6 hPa 0,0 l/m 2 min 0 min 243 W/m 6,4 km/h (2 Bft) 97,83 %
02.07.2020 19:30 19,2 C 19,4 C 17,8 C 83 % 1012,7 hPa 0,0 l/m 2 min 0 min 166 W/m 9,7 km/h (2 Bft) 97,87 %
02.07.2020 19:32 19,2 C 19,4 C 17,8 C 83 % 1012,7 hPa 0,0 l/m 0 min 0 min 153 W/m 6,4 km/h (2 Bft) 97,96 %
02.07.2020 19:34 19,2 C 19,4 C 17,8 C 83 % 1012,8 hPa 0,0 l/m 0 min 0 min 147 W/m 12,9 km/h (3 Bft) 93,62 %
02.07.2020 19:36 19,3 C 19,4 C 17,8 C 83 % 1012,7 hPa 0,0 l/m 0 min 0 min 100 W/m 6,4 km/h (2 Bft) 95,74 %
02.07.2020 19:38 19,3 C 19,4 C 17,8 C 83 % 1012,7 hPa 0,0 l/m 0 min 0 min 94 W/m 6,4 km/h (2 Bft) 95,65 %
02.07.2020 19:40 19,3 C 18,9 C 17,8 C 83 % 1012,7 hPa 0,0 l/m 0 min 0 min 103 W/m 12,9 km/h (3 Bft) 97,87 %
02.07.2020 19:42 19,3 C 18,9 C 17,8 C 83 % 1012,7 hPa 0,0 l/m 2 min 0 min 178 W/m 9,7 km/h (2 Bft) 97,87 %
02.07.2020 19:44 19,3 C 18,9 C 17,8 C 83 % 1012,7 hPa 0,0 l/m 2 min 0 min 275 W/m 6,4 km/h (2 Bft) 100,00 %
02.07.2020 19:46 19,4 C 18,9 C 17,8 C 83 % 1012,8 hPa 0,0 l/m 2 min 0 min 277 W/m 12,9 km/h (3 Bft) 97,87 %
02.07.2020 19:48 19,4 C 18,9 C 17,8 C 83 % 1012,8 hPa 0,0 l/m 2 min 0 min 260 W/m 6,4 km/h (2 Bft) 100,00 %
02.07.2020 19:50 19,4 C 18,9 C 18,3 C 83 % 1012,8 hPa 0,0 l/m 2 min 0 min 197 W/m 12,9 km/h (3 Bft) 100,00 %
02.07.2020 19:52 19,4 C 18,9 C 18,3 C 82 % 1012,8 hPa 0,0 l/m 0 min 0 min 112 W/m 12,9 km/h (3 Bft) 100,00 %
02.07.2020 19:54 19,4 C 18,9 C 17,8 C 82 % 1012,9 hPa 0,0 l/m 0 min 0 min 69 W/m 6,4 km/h (2 Bft) 97,87 %
02.07.2020 19:56 19,4 C 18,9 C 17,8 C 82 % 1012,8 hPa 0,0 l/m 0 min 0 min 63 W/m 6,4 km/h (2 Bft) 100,00 %
02.07.2020 19:58 19,4 C 18,3 C 17,8 C 82 % 1012,9 hPa 0,0 l/m 0 min 0 min 60 W/m 12,9 km/h (3 Bft) 97,87 %
02.07.2020 20:00 19,3 C 18,3 C 17,8 C 82 % 1012,9 hPa 0,0 l/m 0 min 0 min 56 W/m 12,9 km/h (3 Bft) 100,00 %
02.07.2020 20:02 19,3 C 18,3 C 17,8 C 81 % 1012,9 hPa 0,0 l/m 0 min 0 min 54 W/m 12,9 km/h (3 Bft) 100,00 %
02.07.2020 20:04 19,3 C 18,3 C 17,8 C 82 % 1012,9 hPa 0,0 l/m 0 min 0 min 55 W/m 6,4 km/h (2 Bft) 100,00 %
02.07.2020 20:06 19,3 C 18,3 C 17,8 C 82 % 1013,0 hPa 0,0 l/m 0 min 0 min 55 W/m 6,4 km/h (2 Bft) 100,00 %
02.07.2020 20:08 19,3 C 18,3 C 17,8 C 82 % 1012,9 hPa 0,0 l/m 0 min 0 min 54 W/m 9,7 km/h (2 Bft) 100,00 %
02.07.2020 20:09 19,3 C 18,3 C 17,2 C 82 % 1013,0 hPa 0,0 l/m 0 min 0 min 50 W/m 6,4 km/h (2 Bft) 100,00 %
02.07.2020 20:12 19,2 C 18,3 C 17,2 C 82 % 1012,9 hPa 0,0 l/m 0 min 0 min 45 W/m 6,4 km/h (2 Bft) 97,87 %
02.07.2020 20:14 19,2 C 17,8 C 17,2 C 82 % 1013,0 hPa 0,0 l/m 0 min 0 min 37 W/m 6,4 km/h (2 Bft) 97,87 %
02.07.2020 20:16 19,2 C 17,8 C 17,2 C 82 % 1012,9 hPa 0,0 l/m 0 min 0 min 32 W/m 6,4 km/h (2 Bft) 100,00 %
02.07.2020 20:18 19,2 C 17,8 C 17,2 C 82 % 1013,0 hPa 0,0 l/m 0 min 0 min 32 W/m 6,4 km/h (2 Bft) 100,00 %
02.07.2020 20:20 19,1 C 17,8 C 17,2 C 82 % 1013,0 hPa 0,0 l/m 0 min 0 min 35 W/m 3,2 km/h (1 Bft) 100,00 %
02.07.2020 20:22 19,1 C 17,8 C 17,2 C 82 % 1013,0 hPa 0,0 l/m 0 min 0 min 42 W/m 3,2 km/h (1 Bft) 97,87 %
02.07.2020 20:24 19,1 C 17,8 C 17,2 C 83 % 1013,1 hPa 0,0 l/m 0 min 0 min 41 W/m 3,2 km/h (1 Bft) 97,83 %
02.07.2020 20:26 19,1 C 17,8 C 17,2 C 83 % 1013,0 hPa 0,0 l/m 0 min 0 min 36 W/m 6,4 km/h (2 Bft) 100,00 %
02.07.2020 20:28 19,1 C 17,8 C 17,2 C 83 % 1013,0 hPa 0,0 l/m 0 min 0 min 34 W/m 0,0 km/h (0 Bft) 100,00 %
02.07.2020 20:30 19,0 C 17,8 C 16,7 C 83 % 1013,1 hPa 0,0 l/m 0 min 0 min 33 W/m 0,0 km/h (0 Bft) 100,00 %
02.07.2020 20:32 19,0 C 17,2 C 16,7 C 83 % 1013,0 hPa 0,0 l/m 0 min 0 min 32 W/m 3,2 km/h (1 Bft) 97,22 %
02.07.2020 20:34 18,9 C 17,2 C 16,7 C 83 % 1013,1 hPa 0,0 l/m 0 min 0 min 24 W/m 0,0 km/h (0 Bft) 100,00 %
02.07.2020 20:36 18,9 C 17,2 C 16,7 C 83 % 1013,1 hPa 0,0 l/m 0 min 0 min 16 W/m 0,0 km/h (0 Bft) 98,28 %
02.07.2020 20:38 18,9 C 17,2 C 16,7 C 83 % 1013,1 hPa 0,0 l/m 0 min 0 min 11 W/m 0,0 km/h (0 Bft) 95,74 %
02.07.2020 20:40 18,9 C 17,2 C 16,7 C 84 % 1013,1 hPa 0,0 l/m 0 min 0 min 8 W/m 0,0 km/h (0 Bft) 94,29 %
02.07.2020 20:42 18,9 C 17,2 C 16,7 C 84 % 1013,1 hPa 0,0 l/m 0 min 0 min 7 W/m 0,0 km/h (0 Bft) 95,74 %
02.07.2020 20:44 18,8 C 17,2 C 16,7 C 84 % 1013,1 hPa 0,0 l/m 0 min 0 min 7 W/m 6,4 km/h (2 Bft) 93,62 %
02.07.2020 20:46 18,8 C 17,2 C 16,7 C 84 % 1013,2 hPa 0,0 l/m 0 min 0 min 7 W/m 0,0 km/h (0 Bft) 95,74 %
02.07.2020 20:48 18,8 C 16,7 C 16,7 C 85 % 1013,2 hPa 0,0 l/m 0 min 0 min 5 W/m 6,4 km/h (2 Bft) 95,74 %
02.07.2020 20:50 18,7 C 16,7 C 16,7 C 84 % 1013,3 hPa 0,0 l/m 0 min 0 min 4 W/m 9,7 km/h (2 Bft) 93,48 %
02.07.2020 20:52 18,6 C 16,7 C 16,7 C 84 % 1013,4 hPa 0,0 l/m 0 min 0 min 0 W/m 6,4 km/h (2 Bft) 95,74 %
02.07.2020 20:54 18,6 C 16,7 C 16,7 C 83 % 1013,5 hPa 0,0 l/m 0 min 0 min 2 W/m 12,9 km/h (3 Bft) 93,62 %
02.07.2020 20:56 18,4 C 16,7 C 16,7 C 82 % 1013,5 hPa 0,0 l/m 0 min 0 min 6 W/m 6,4 km/h (2 Bft) 95,74 %
02.07.2020 20:58 18,3 C 16,7 C 16,7 C 81 % 1013,4 hPa 0,0 l/m 0 min 0 min 9 W/m 6,4 km/h (2 Bft) 95,74 %
02.07.2020 21:00 18,3 C 16,7 C 16,7 C 81 % 1013,4 hPa 0,0 l/m 0 min 0 min 11 W/m 6,4 km/h (2 Bft) 95,74 %
02.07.2020 21:02 18,1 C 16,7 C 16,1 C 79 % 1013,5 hPa 0,0 l/m 0 min 0 min 9 W/m 6,4 km/h (2 Bft) 93,62 %
02.07.2020 21:04 18,1 C 16,7 C 16,1 C 78 % 1013,5 hPa 0,0 l/m 0 min 0 min 8 W/m 6,4 km/h (2 Bft) 95,74 %
02.07.2020 21:06 18,0 C 16,1 C 16,1 C 78 % 1013,6 hPa 0,0 l/m 0 min 0 min 7 W/m 9,7 km/h (2 Bft) 95,74 %
02.07.2020 21:08 17,9 C 16,1 C 16,1 C 78 % 1013,6 hPa 0,0 l/m 0 min 0 min 5 W/m 6,4 km/h (2 Bft) 93,62 %
02.07.2020 21:10 17,9 C 16,1 C 16,1 C 77 % 1013,7 hPa 0,0 l/m 0 min 0 min 1 W/m 6,4 km/h (2 Bft) 95,74 %
02.07.2020 21:12 17,8 C 16,1 C 16,1 C 77 % 1013,7 hPa 0,0 l/m 0 min 0 min 0 W/m 6,4 km/h (2 Bft) 93,62 %
02.07.2020 21:14 17,8 C 16,1 C 16,1 C 77 % 1013,8 hPa 0,0 l/m 0 min 0 min 0 W/m 3,2 km/h (1 Bft) 95,65 %
02.07.2020 21:16 17,7 C 16,1 C 16,1 C 78 % 1014,0 hPa 0,0 l/m 0 min 0 min 0 W/m 3,2 km/h (1 Bft) 95,74 %
02.07.2020 21:18 17,7 C 16,1 C 16,1 C 79 % 1014,0 hPa 0,0 l/m 0 min 0 min 0 W/m 9,7 km/h (2 Bft) 95,74 %
02.07.2020 21:20 17,7 C 16,1 C 16,1 C 79 % 1014,1 hPa 0,0 l/m 0 min 0 min 0 W/m 6,4 km/h (2 Bft) 91,49 %
02.07.2020 21:22 17,6 C 16,1 C 16,1 C 79 % 1014,2 hPa 0,0 l/m 0 min 0 min 0 W/m 9,7 km/h (2 Bft) 97,87 %
02.07.2020 21:24 17,5 C 15,6 C 16,1 C 78 % 1014,1 hPa 0,0 l/m 0 min 2 min 0 W/m 19,3 km/h (3 Bft) 97,87 %
02.07.2020 21:26 17,4 C 15,0 C 15,6 C 78 % 1014,1 hPa 0,0 l/m 0 min 2 min 1 W/m 19,3 km/h (3 Bft) 95,65 %
02.07.2020 21:28 17,3 C 14,4 C 15,6 C 79 % 1014,2 hPa 0,0 l/m 0 min 2 min 5 W/m 12,9 km/h (3 Bft) 97,87 %
02.07.2020 21:30 17,3 C 13,9 C 15,6 C 79 % 1014,1 hPa 0,0 l/m 0 min 2 min 5 W/m 9,7 km/h (2 Bft) 97,87 %
02.07.2020 21:32 17,2 C 13,3 C 15,0 C 80 % 1014,1 hPa 0,0 l/m 0 min 2 min 6 W/m 6,4 km/h (2 Bft) 97,92 %
02.07.2020 21:34 17,1 C 13,3 C 15,0 C 81 % 1014,1 hPa 0,0 l/m 0 min 2 min 7 W/m 6,4 km/h (2 Bft) 100,00 %
02.07.2020 21:36 17,1 C 13,3 C 15,0 C 82 % 1014,1 hPa 0,0 l/m 0 min 2 min 7 W/m 6,4 km/h (2 Bft) 97,83 %
02.07.2020 21:38 16,9 C 12,8 C 14,4 C 82 % 1014,2 hPa 0,0 l/m 0 min 2 min 5 W/m 3,2 km/h (1 Bft) 97,87 %
02.07.2020 21:40 16,8 C 12,8 C 14,4 C 82 % 1014,1 hPa 0,0 l/m 0 min 2 min 5 W/m 3,2 km/h (1 Bft) 97,87 %
02.07.2020 21:42 16,7 C 12,8 C 14,4 C 82 % 1014,1 hPa 0,0 l/m 0 min 2 min 5 W/m 6,4 km/h (2 Bft) 95,74 %
02.07.2020 21:44 16,6 C 12,8 C 14,4 C 82 % 1014,1 hPa 0,0 l/m 0 min 0 min 3 W/m 9,7 km/h (2 Bft) 95,74 %
02.07.2020 21:46 16,5 C 12,8 C 13,9 C 82 % 1014,0 hPa 0,0 l/m 0 min 0 min 0 W/m 3,2 km/h (1 Bft) 97,87 %
02.07.2020 21:48 16,4 C 12,8 C 13,9 C 83 % 1014,1 hPa 0,0 l/m 0 min 0 min 0 W/m 3,2 km/h (1 Bft) 95,65 %
02.07.2020 21:50 16,3 C 12,8 C 13,9 C 83 % 1014,2 hPa 0,0 l/m 0 min 0 min 0 W/m 0,0 km/h (0 Bft) 97,87 %
02.07.2020 21:52 16,2 C 12,8 C 13,3 C 83 % 1014,2 hPa 0,0 l/m 0 min 0 min 0 W/m 0,0 km/h (0 Bft) 97,87 %
02.07.2020 21:54 16,2 C 12,8 C 13,3 C 83 % 1014,2 hPa 0,0 l/m 0 min 0 min 0 W/m 0,0 km/h (0 Bft) 63,83 %
02.07.2020 21:56 16,1 C 12,8 C 13,3 C 84 % 1014,2 hPa 0,0 l/m 0 min 0 min 0 W/m 0,0 km/h (0 Bft) 82,35 %
02.07.2020 21:58 15,9 C 12,8 C 13,3 C 84 % 1014,3 hPa 0,0 l/m 0 min 0 min 0 W/m 0,0 km/h (0 Bft) 97,87 %
02.07.2020 22:00 15,8 C 12,8 C 13,3 C 84 % 1014,3 hPa 0,0 l/m 0 min 0 min 0 W/m 6,4 km/h (2 Bft) 97,83 %
02.07.2020 22:02 15,8 C 12,8 C 13,3 C 84 % 1014,3 hPa 0,0 l/m 0 min 0 min 0 W/m 0,0 km/h (0 Bft) 97,92 %
02.07.2020 22:04 15,7 C 12,8 C 13,3 C 85 % 1014,3 hPa 0,0 l/m 0 min 0 min 0 W/m 3,2 km/h (1 Bft) 97,87 %
02.07.2020 22:06 15,7 C 12,8 C 13,3 C 85 % 1014,3 hPa 0,0 l/m 0 min 0 min 0 W/m 0,0 km/h (0 Bft) 95,74 %
02.07.2020 22:08 15,6 C 12,8 C 13,3 C 85 % 1014,4 hPa 0,0 l/m 0 min 0 min 0 W/m 0,0 km/h (0 Bft) 95,74 %
02.07.2020 22:10 15,6 C 12,8 C 13,3 C 85 % 1014,4 hPa 0,0 l/m 0 min 0 min 0 W/m 0,0 km/h (0 Bft) 97,87 %
02.07.2020 22:12 15,5 C 13,3 C 13,3 C 85 % 1014,4 hPa 0,0 l/m 0 min 0 min 0 W/m 0,0 km/h (0 Bft) 97,83 %
02.07.2020 22:14 15,4 C 13,3 C 13,3 C 86 % 1014,5 hPa 0,0 l/m 0 min 0 min 0 W/m 3,2 km/h (1 Bft) 95,74 %
02.07.2020 22:16 15,4 C 13,3 C 13,3 C 86 % 1014,5 hPa 0,0 l/m 0 min 0 min 0 W/m 0,0 km/h (0 Bft) 97,87 %
02.07.2020 22:18 15,3 C 13,3 C 13,3 C 86 % 1014,5 hPa 0,0 l/m 0 min 0 min 0 W/m 0,0 km/h (0 Bft) 97,87 %
02.07.2020 22:20 15,3 C 13,3 C 13,3 C 86 % 1014,5 hPa 0,0 l/m 0 min 0 min 0 W/m 6,4 km/h (2 Bft) 97,87 %
02.07.2020 22:22 15,2 C 13,3 C 13,3 C 86 % 1014,5 hPa 0,0 l/m 0 min 0 min 0 W/m 3,2 km/h (1 Bft) 97,83 %
02.07.2020 22:24 15,2 C 13,3 C 13,3 C 87 % 1014,6 hPa 0,0 l/m 0 min 0 min 0 W/m 6,4 km/h (2 Bft) 97,87 %
02.07.2020 22:26 15,2 C 13,9 C 13,9 C 87 % 1014,6 hPa 0,0 l/m 0 min 0 min 0 W/m 0,0 km/h (0 Bft) 95,74 %
02.07.2020 22:28 15,1 C 13,9 C 13,9 C 87 % 1014,6 hPa 0,0 l/m 0 min 0 min 0 W/m 0,0 km/h (0 Bft) 97,87 %
02.07.2020 22:30 15,1 C 13,9 C 13,9 C 87 % 1014,6 hPa 0,0 l/m 0 min 0 min 0 W/m 6,4 km/h (2 Bft) 95,74 %
02.07.2020 22:32 15,1 C 13,3 C 13,9 C 87 % 1014,6 hPa 0,0 l/m 0 min 0 min 0 W/m 6,4 km/h (2 Bft) 97,92 %
02.07.2020 22:34 15,0 C 13,3 C 13,9 C 87 % 1014,6 hPa 0,0 l/m 0 min 0 min 0 W/m 6,4 km/h (2 Bft) 97,83 %
02.07.2020 22:36 14,9 C 13,3 C 13,3 C 87 % 1014,6 hPa 0,0 l/m 0 min 0 min 0 W/m 0,0 km/h (0 Bft) 97,87 %
02.07.2020 22:38 14,9 C 13,3 C 13,3 C 87 % 1014,6 hPa 0,0 l/m 0 min 0 min 0 W/m 0,0 km/h (0 Bft) 100,00 %
02.07.2020 22:40 14,9 C 13,3 C 13,3 C 87 % 1014,6 hPa 0,0 l/m 0 min 0 min 0 W/m 6,4 km/h (2 Bft) 100,00 %
02.07.2020 22:42 14,8 C 13,3 C 13,3 C 87 % 1014,6 hPa 0,0 l/m 0 min 0 min 0 W/m 6,4 km/h (2 Bft) 100,00 %
02.07.2020 22:44 14,8 C 13,3 C 13,3 C 87 % 1014,5 hPa 0,0 l/m 0 min 0 min 0 W/m 3,2 km/h (1 Bft) 100,00 %
02.07.2020 22:46 14,8 C 13,3 C 13,3 C 88 % 1014,6 hPa 0,0 l/m 0 min 0 min 0 W/m 0,0 km/h (0 Bft) 97,83 %
02.07.2020 22:48 14,8 C 13,3 C 13,3 C 88 % 1014,6 hPa 0,0 l/m 0 min 0 min 0 W/m 3,2 km/h (1 Bft) 100,00 %
02.07.2020 22:50 14,7 C 13,3 C 13,3 C 88 % 1014,6 hPa 0,0 l/m 0 min 0 min 0 W/m 0,0 km/h (0 Bft) 100,00 %
02.07.2020 22:52 14,7 C 13,3 C 13,3 C 88 % 1014,6 hPa 0,0 l/m 0 min 0 min 0 W/m 0,0 km/h (0 Bft) 100,00 %
02.07.2020 22:54 14,7 C 13,3 C 13,3 C 88 % 1014,6 hPa 0,0 l/m 0 min 0 min 0 W/m 0,0 km/h (0 Bft) 97,87 %
02.07.2020 22:56 14,6 C 13,3 C 13,3 C 88 % 1014,6 hPa 0,0 l/m 0 min 0 min 0 W/m 0,0 km/h (0 Bft) 100,00 %
02.07.2020 22:58 14,6 C 13,3 C 13,3 C 88 % 1014,7 hPa 0,0 l/m 0 min 0 min 0 W/m 0,0 km/h (0 Bft) 100,00 %
02.07.2020 23:00 14,6 C 13,3 C 13,3 C 88 % 1014,7 hPa 0,0 l/m 0 min 0 min 0 W/m 0,0 km/h (0 Bft) 97,87 %
02.07.2020 23:02 14,6 C 12,8 C 12,8 C 88 % 1014,7 hPa 0,0 l/m 0 min 0 min 0 W/m 0,0 km/h (0 Bft) 95,83 %
02.07.2020 23:04 14,6 C 12,8 C 12,8 C 88 % 1014,7 hPa 0,0 l/m 0 min 0 min 0 W/m 0,0 km/h (0 Bft) 100,00 %
02.07.2020 23:06 14,5 C 12,8 C 12,8 C 88 % 1014,7 hPa 0,0 l/m 0 min 0 min 0 W/m 0,0 km/h (0 Bft) 97,87 %
02.07.2020 23:08 14,5 C 12,8 C 12,8 C 89 % 1014,7 hPa 0,0 l/m 0 min 0 min 0 W/m 0,0 km/h (0 Bft) 97,83 %
02.07.2020 23:10 14,5 C 13,3 C 12,8 C 89 % 1014,8 hPa 0,0 l/m 0 min 0 min 0 W/m 0,0 km/h (0 Bft) 100,00 %
02.07.2020 23:12 14,5 C 13,3 C 13,3 C 89 % 1014,8 hPa 0,0 l/m 0 min 0 min 0 W/m 0,0 km/h (0 Bft) 97,87 %
02.07.2020 23:14 14,4 C 13,3 C 13,3 C 89 % 1014,8 hPa 0,0 l/m 0 min 0 min 0 W/m 0,0 km/h (0 Bft) 97,87 %
02.07.2020 23:16 14,4 C 13,3 C 13,3 C 89 % 1014,8 hPa 0,0 l/m 0 min 0 min 0 W/m 0,0 km/h (0 Bft) 95,74 %
02.07.2020 23:18 14,4 C 13,3 C 13,3 C 89 % 1014,8 hPa 0,0 l/m 0 min 0 min 0 W/m 0,0 km/h (0 Bft) 95,74 %
02.07.2020 23:20 14,4 C 13,3 C 13,3 C 89 % 1014,8 hPa 0,0 l/m 0 min 0 min 0 W/m 0,0 km/h (0 Bft) 97,83 %
02.07.2020 23:22 14,3 C 13,3 C 13,3 C 89 % 1014,8 hPa 0,0 l/m 0 min 0 min 0 W/m 0,0 km/h (0 Bft) 97,87 %
02.07.2020 23:24 14,3 C 13,3 C 13,3 C 89 % 1014,8 hPa 0,0 l/m 0 min 0 min 0 W/m 0,0 km/h (0 Bft) 97,87 %
02.07.2020 23:26 14,3 C 12,8 C 13,3 C 89 % 1014,8 hPa 0,0 l/m 0 min 0 min 0 W/m 0,0 km/h (0 Bft) 97,87 %
02.07.2020 23:28 14,3 C 12,8 C 12,8 C 89 % 1014,8 hPa 0,0 l/m 0 min 0 min 0 W/m 0,0 km/h (0 Bft) 97,87 %
02.07.2020 23:30 14,3 C 12,8 C 12,8 C 89 % 1014,8 hPa 0,0 l/m 0 min 0 min 0 W/m 0,0 km/h (0 Bft) 97,87 %
02.07.2020 23:32 14,3 C 12,8 C 12,8 C 89 % 1014,8 hPa 0,0 l/m 0 min 0 min 0 W/m 0,0 km/h (0 Bft) 93,48 %
02.07.2020 23:34 14,3 C 12,8 C 12,8 C 89 % 1014,8 hPa 0,0 l/m 0 min 0 min 0 W/m 0,0 km/h (0 Bft) 97,87 %
02.07.2020 23:36 14,3 C 12,8 C 12,8 C 89 % 1014,7 hPa 0,0 l/m 0 min 0 min 0 W/m 0,0 km/h (0 Bft) 97,87 %
02.07.2020 23:38 14,3 C 12,8 C 12,8 C 89 % 1014,7 hPa 0,0 l/m 0 min 0 min 0 W/m 0,0 km/h (0 Bft) 97,87 %
02.07.2020 23:40 14,3 C 12,8 C 12,8 C 89 % 1014,7 hPa 0,0 l/m 0 min 0 min 0 W/m 0,0 km/h (0 Bft) 97,87 %
02.07.2020 23:42 14,3 C 12,8 C 12,8 C 89 % 1014,7 hPa 0,0 l/m 0 min 0 min 0 W/m 0,0 km/h (0 Bft) 97,87 %
02.07.2020 23:44 14,3 C 12,8 C 12,8 C 89 % 1014,7 hPa 0,0 l/m 0 min 0 min 0 W/m 0,0 km/h (0 Bft) 95,65 %
02.07.2020 23:46 14,3 C 12,8 C 12,8 C 89 % 1014,8 hPa 0,0 l/m 0 min 0 min 0 W/m 0,0 km/h (0 Bft) 97,87 %
02.07.2020 23:48 14,3 C 12,8 C 12,8 C 89 % 1014,8 hPa 0,0 l/m 0 min 0 min 0 W/m 0,0 km/h (0 Bft) 97,87 %
02.07.2020 23:50 14,3 C 12,8 C 12,8 C 89 % 1014,8 hPa 0,0 l/m 0 min 0 min 0 W/m 0,0 km/h (0 Bft) 95,74 %
02.07.2020 23:52 14,3 C 12,8 C 12,8 C 89 % 1014,8 hPa 0,0 l/m 0 min 0 min 0 W/m 0,0 km/h (0 Bft) 95,74 %
02.07.2020 23:54 14,3 C 12,8 C 12,2 C 89 % 1014,8 hPa 0,0 l/m 0 min 0 min 0 W/m 0,0 km/h (0 Bft) 97,87 %
02.07.2020 23:56 14,3 C 12,8 C 12,2 C 90 % 1014,9 hPa 0,0 l/m 0 min 0 min 0 W/m 0,0 km/h (0 Bft) 100,00 %
02.07.2020 23:58 14,2 C 12,8 C 12,2 C 90 % 1014,9 hPa 0,0 l/m 0 min 0 min 0 W/m 0,0 km/h (0 Bft) 100,00 %
_ Min-Zeit 05:50 04:28 04:18 16:28 00:00 - - - - 00:42 21:54
Minimum _ 13,7 C 12,8 C 12,2 C 64 % 1009,0 hPa - - - - 0,0 km/h (0 Bft) 63,83 %
_ Max-Zeit 16:26 14:50 09:54 00:00 23:56 11:18 12:08 15:18 14:46 16:38 00:00
Maximum _ 23,1 C 28,9 C 23,9 C 97 % 1014,9 hPa 0,2 l/m 4 min 2 min 1118 W/m 29,0 km/h
N (5 Bft)
100,00 %
Durchschnitt _ 17,6 C 17,4 C 16,2 C 86 % 1011,3 hPa #0,2 l/m #2:24 h #40 min. 206 W/m 7,9 km/h (2 Bft) 97,15 %
© 2020 W. Hausmann